BOC349 FAOR-DTNH
Flight info
| Callsign | BOC349 |
|---|---|
| Flight time | N/A |
| Altitude | 23000 |
| Route | NESAN Q40 EVIPI Q16 ETMIT/N0501F290 UM214 OKLAP/N0501F300 UM214 AKMEX/N0502F320 UM214 ILDOR/N0490F340 UG655 GARIN/N0486F320 G655 SEB/N0478F340 A403 GRT R845 IZD M727 ZAW R845 REXOS |
| Aircraft | B77L/H-SDE1E2E3FGHIJ2J3J4J5M1RWXY/LB1D1 |
Departure
| Time | N/A |
|---|---|
| Airport | O.R. Tambo International Airport (FAOR) |
Arrival
| Time | 2026-04-28 19:34 |
|---|---|
| Airport | Enfidha - Hammamet International Airport (DTNH) |
| Time | Latitude | Longitude | Altitude | Speed | Heading |
|---|---|---|---|---|---|
| 2026-04-28 11:44 | -22.34830 | 27.54374 | 32157 ft | 488 kts | 351° |
| 2026-04-28 11:44 | -22.31403 | 27.54038 | 32158 ft | 489 kts | 351° |
| 2026-04-28 11:45 | -22.24674 | 27.53382 | 32157 ft | 488 kts | 351° |
| 2026-04-28 11:45 | -22.17924 | 27.52722 | 32157 ft | 488 kts | 351° |
| 2026-04-28 11:46 | -22.11155 | 27.52060 | 32153 ft | 488 kts | 351° |
| 2026-04-28 11:46 | -22.04388 | 27.51398 | 32149 ft | 488 kts | 351° |
| 2026-04-28 11:47 | -21.97618 | 27.50738 | 32147 ft | 489 kts | 351° |
| 2026-04-28 11:47 | -21.90814 | 27.50324 | 32152 ft | 490 kts | 354° |
| 2026-04-28 11:48 | -21.83987 | 27.50080 | 32150 ft | 491 kts | 354° |
| 2026-04-28 11:48 | -21.77156 | 27.49832 | 32148 ft | 491 kts | 354° |
| 2026-04-28 11:49 | -21.70318 | 27.49563 | 32139 ft | 491 kts | 354° |
| 2026-04-28 11:49 | -21.63541 | 27.49288 | 32138 ft | 492 kts | 354° |
| 2026-04-28 11:50 | -21.56706 | 27.49014 | 32139 ft | 491 kts | 354° |
| 2026-04-28 11:50 | -21.49876 | 27.48741 | 32138 ft | 491 kts | 354° |
| 2026-04-28 11:51 | -21.43043 | 27.48467 | 32143 ft | 491 kts | 354° |
| 2026-04-28 11:51 | -21.36215 | 27.48195 | 32129 ft | 491 kts | 354° |
| 2026-04-28 11:52 | -21.30544 | 27.47968 | 32128 ft | 491 kts | 354° |
| 2026-04-28 11:52 | -21.23725 | 27.47696 | 32133 ft | 490 kts | 354° |
| 2026-04-28 11:53 | -21.16918 | 27.47327 | 32128 ft | 488 kts | 351° |
| 2026-04-28 11:53 | -21.10299 | 27.45892 | 32119 ft | 485 kts | 342° |
| 2026-04-28 11:54 | -21.03772 | 27.44080 | 32137 ft | 485 kts | 343° |
| 2026-04-28 11:54 | -20.97222 | 27.42299 | 32131 ft | 486 kts | 343° |
| 2026-04-28 11:55 | -20.90658 | 27.40541 | 32130 ft | 487 kts | 343° |
| 2026-04-28 11:55 | -20.84080 | 27.38789 | 32132 ft | 487 kts | 343° |
| 2026-04-28 11:56 | -20.77505 | 27.37037 | 32141 ft | 487 kts | 343° |
| 2026-04-28 11:56 | -20.70906 | 27.35280 | 32279 ft | 492 kts | 343° |
| 2026-04-28 11:57 | -20.67592 | 27.34398 | 32653 ft | 491 kts | 343° |
| 2026-04-28 11:57 | -20.64287 | 27.33519 | 33091 ft | 488 kts | 343° |
| 2026-04-28 11:57 | -20.61001 | 27.32645 | 33545 ft | 485 kts | 343° |
| 2026-04-28 11:57 | -20.57740 | 27.31779 | 33958 ft | 483 kts | 343° |
| 2026-04-28 11:58 | -20.54479 | 27.30913 | 34186 ft | 484 kts | 343° |
| 2026-04-28 11:58 | -20.51201 | 27.30041 | 34130 ft | 486 kts | 343° |
| 2026-04-28 11:58 | -20.44664 | 27.28306 | 34144 ft | 482 kts | 343° |
| 2026-04-28 11:59 | -20.38170 | 27.26583 | 34157 ft | 480 kts | 343° |
| 2026-04-28 11:59 | -20.31688 | 27.24866 | 34157 ft | 480 kts | 343° |
| 2026-04-28 12:00 | -20.25210 | 27.23151 | 34152 ft | 480 kts | 343° |
| 2026-04-28 12:00 | -20.18724 | 27.21435 | 34170 ft | 481 kts | 343° |
| 2026-04-28 12:01 | -20.12227 | 27.19718 | 34166 ft | 482 kts | 344° |
| 2026-04-28 12:01 | -20.05710 | 27.18002 | 34169 ft | 483 kts | 344° |
| 2026-04-28 12:02 | -19.99169 | 27.16323 | 34166 ft | 484 kts | 344° |
| 2026-04-28 12:02 | -19.92620 | 27.14616 | 34146 ft | 485 kts | 345° |
| 2026-04-28 12:03 | -19.86061 | 27.12876 | 34151 ft | 486 kts | 344° |
| 2026-04-28 12:03 | -19.79493 | 27.11138 | 34146 ft | 487 kts | 345° |
| 2026-04-28 12:04 | -19.72916 | 27.09405 | 34147 ft | 487 kts | 345° |
| 2026-04-28 12:04 | -19.66348 | 27.07674 | 34155 ft | 486 kts | 345° |
| 2026-04-28 12:05 | -19.59783 | 27.05947 | 34156 ft | 486 kts | 345° |
| 2026-04-28 12:05 | -19.53227 | 27.04223 | 34164 ft | 485 kts | 345° |
| 2026-04-28 12:06 | -19.46681 | 27.02504 | 34173 ft | 484 kts | 345° |
| 2026-04-28 12:06 | -19.40137 | 27.00787 | 34177 ft | 484 kts | 345° |
| 2026-04-28 12:07 | -19.33641 | 26.99098 | 34173 ft | 484 kts | 345° |
| 2026-04-28 12:07 | -19.27097 | 26.97401 | 34176 ft | 484 kts | 345° |
| 2026-04-28 12:08 | -19.20555 | 26.95702 | 34175 ft | 484 kts | 345° |
| 2026-04-28 12:08 | -19.14011 | 26.94004 | 34176 ft | 484 kts | 345° |
| 2026-04-28 12:09 | -19.07466 | 26.92307 | 34175 ft | 484 kts | 345° |
| 2026-04-28 12:09 | -19.00920 | 26.90599 | 34186 ft | 484 kts | 345° |
| 2026-04-28 12:10 | -18.94374 | 26.88888 | 34184 ft | 485 kts | 345° |
| 2026-04-28 12:10 | -18.87825 | 26.87179 | 34186 ft | 485 kts | 345° |
| 2026-04-28 12:11 | -18.81269 | 26.85469 | 34183 ft | 485 kts | 346° |
| 2026-04-28 12:11 | -18.74715 | 26.83762 | 34185 ft | 485 kts | 346° |
| 2026-04-28 12:12 | -18.68159 | 26.82057 | 34185 ft | 485 kts | 346° |
| 2026-04-28 12:12 | -18.61604 | 26.80352 | 34185 ft | 486 kts | 346° |
| 2026-04-28 12:13 | -18.55039 | 26.78649 | 34184 ft | 486 kts | 346° |
| 2026-04-28 12:13 | -18.48474 | 26.76958 | 34184 ft | 486 kts | 346° |
| 2026-04-28 12:14 | -18.41900 | 26.75265 | 34173 ft | 486 kts | 346° |
| 2026-04-28 12:14 | -18.35326 | 26.73573 | 34175 ft | 486 kts | 346° |
| 2026-04-28 12:15 | -18.28754 | 26.71882 | 34176 ft | 487 kts | 346° |
| 2026-04-28 12:15 | -18.22170 | 26.70187 | 34165 ft | 487 kts | 346° |
| 2026-04-28 12:16 | -18.15591 | 26.68497 | 34166 ft | 487 kts | 346° |
| 2026-04-28 12:16 | -18.09015 | 26.66808 | 34160 ft | 487 kts | 346° |
| 2026-04-28 12:17 | -18.02428 | 26.65117 | 34153 ft | 487 kts | 346° |
| 2026-04-28 12:17 | -17.95843 | 26.63420 | 34144 ft | 487 kts | 347° |
| 2026-04-28 12:18 | -17.89264 | 26.61726 | 34148 ft | 487 kts | 347° |
| 2026-04-28 12:18 | -17.82684 | 26.60030 | 34141 ft | 487 kts | 347° |
| 2026-04-28 12:19 | -17.76103 | 26.58338 | 34140 ft | 487 kts | 347° |
| 2026-04-28 12:19 | -17.69526 | 26.56648 | 34138 ft | 487 kts | 347° |
| 2026-04-28 12:20 | -17.62952 | 26.54959 | 34138 ft | 487 kts | 347° |
| 2026-04-28 12:20 | -17.56373 | 26.53270 | 34139 ft | 486 kts | 347° |
| 2026-04-28 12:21 | -17.49802 | 26.51585 | 34138 ft | 486 kts | 347° |
| 2026-04-28 12:21 | -17.43226 | 26.49900 | 34139 ft | 486 kts | 347° |
| 2026-04-28 12:22 | -17.36652 | 26.48218 | 34135 ft | 486 kts | 347° |
| 2026-04-28 12:22 | -17.30081 | 26.46535 | 34128 ft | 486 kts | 347° |
| 2026-04-28 12:23 | -17.23509 | 26.44855 | 34130 ft | 486 kts | 347° |
| 2026-04-28 12:23 | -17.16952 | 26.43115 | 34129 ft | 486 kts | 346° |
| 2026-04-28 12:24 | -17.10407 | 26.41329 | 34129 ft | 486 kts | 346° |
| 2026-04-28 12:24 | -17.03868 | 26.39554 | 34130 ft | 485 kts | 346° |
| 2026-04-28 12:25 | -16.97324 | 26.37789 | 34128 ft | 486 kts | 346° |
| 2026-04-28 12:25 | -16.90780 | 26.36027 | 34118 ft | 486 kts | 346° |
| 2026-04-28 12:26 | -16.84242 | 26.34265 | 34121 ft | 485 kts | 346° |
| 2026-04-28 12:26 | -16.77703 | 26.32504 | 34119 ft | 485 kts | 346° |
| 2026-04-28 12:27 | -16.71170 | 26.30738 | 34114 ft | 485 kts | 346° |
| 2026-04-28 12:27 | -16.64645 | 26.28969 | 34148 ft | 485 kts | 346° |
| 2026-04-28 12:28 | -16.58121 | 26.27201 | 34157 ft | 484 kts | 346° |
| 2026-04-28 12:28 | -16.51593 | 26.25434 | 34158 ft | 485 kts | 346° |
| 2026-04-28 12:29 | -16.41805 | 26.22787 | 34158 ft | 484 kts | 346° |
| 2026-04-28 12:30 | -16.35282 | 26.21025 | 34157 ft | 484 kts | 346° |
| 2026-04-28 12:30 | -16.28753 | 26.19263 | 34165 ft | 484 kts | 346° |
| 2026-04-28 12:31 | -16.22237 | 26.17505 | 34166 ft | 484 kts | 346° |
| 2026-04-28 12:31 | -16.15712 | 26.15747 | 34166 ft | 484 kts | 346° |
| 2026-04-28 12:32 | -16.09187 | 26.13989 | 34166 ft | 484 kts | 346° |
| 2026-04-28 12:32 | -16.02659 | 26.12232 | 34166 ft | 484 kts | 347° |
| 2026-04-28 12:33 | -15.97241 | 26.10774 | 34164 ft | 484 kts | 346° |
| 2026-04-28 12:33 | -15.90713 | 26.09018 | 34166 ft | 484 kts | 346° |
| 2026-04-28 12:34 | -15.83124 | 26.06980 | 34127 ft | 485 kts | 347° |
| 2026-04-28 12:34 | -15.77656 | 26.05513 | 34121 ft | 485 kts | 347° |
| 2026-04-28 12:35 | -15.71120 | 26.03758 | 34119 ft | 485 kts | 346° |
| 2026-04-28 12:35 | -15.64600 | 26.02009 | 34120 ft | 484 kts | 346° |
| 2026-04-28 12:36 | -15.58071 | 26.00260 | 34120 ft | 484 kts | 346° |
| 2026-04-28 12:36 | -15.51545 | 25.98513 | 34122 ft | 484 kts | 346° |
| 2026-04-28 12:37 | -15.45027 | 25.96768 | 34125 ft | 484 kts | 346° |
| 2026-04-28 12:37 | -15.38513 | 25.95025 | 34130 ft | 484 kts | 346° |
| 2026-04-28 12:38 | -15.31996 | 25.93286 | 34132 ft | 484 kts | 346° |
| 2026-04-28 12:38 | -15.25480 | 25.91548 | 34166 ft | 483 kts | 346° |
| 2026-04-28 12:39 | -15.18969 | 25.89811 | 34173 ft | 483 kts | 346° |
| 2026-04-28 12:39 | -15.12447 | 25.88073 | 34176 ft | 484 kts | 346° |
| 2026-04-28 12:40 | -15.05930 | 25.86336 | 34175 ft | 484 kts | 346° |
| 2026-04-28 12:40 | -14.99409 | 25.84601 | 34176 ft | 484 kts | 346° |
| 2026-04-28 12:41 | -14.92939 | 25.82879 | 34174 ft | 484 kts | 346° |
| 2026-04-28 12:41 | -14.86421 | 25.81146 | 34176 ft | 483 kts | 346° |
| 2026-04-28 12:42 | -14.79902 | 25.79413 | 34175 ft | 484 kts | 346° |
| 2026-04-28 12:42 | -14.73385 | 25.77683 | 34178 ft | 483 kts | 345° |
| 2026-04-28 12:43 | -14.66872 | 25.75955 | 34174 ft | 483 kts | 345° |
| 2026-04-28 12:43 | -14.60358 | 25.74228 | 34176 ft | 483 kts | 345° |
| 2026-04-28 12:44 | -14.53847 | 25.72501 | 34174 ft | 483 kts | 345° |
| 2026-04-28 12:44 | -14.47341 | 25.70777 | 34177 ft | 483 kts | 345° |
| 2026-04-28 12:45 | -14.40831 | 25.69054 | 34173 ft | 483 kts | 345° |
| 2026-04-28 12:45 | -14.34315 | 25.67331 | 34165 ft | 484 kts | 345° |
| 2026-04-28 12:46 | -14.27796 | 25.65606 | 34169 ft | 483 kts | 345° |
| 2026-04-28 12:46 | -14.21281 | 25.63885 | 34166 ft | 483 kts | 345° |
| 2026-04-28 12:47 | -14.14771 | 25.62165 | 34165 ft | 483 kts | 345° |
| 2026-04-28 12:47 | -14.08272 | 25.60449 | 34165 ft | 482 kts | 345° |
| 2026-04-28 12:48 | -14.01767 | 25.58734 | 34166 ft | 482 kts | 345° |
| 2026-04-28 12:48 | -13.95267 | 25.57020 | 34169 ft | 482 kts | 345° |
| 2026-04-28 12:49 | -13.88768 | 25.55308 | 34164 ft | 482 kts | 345° |
| 2026-04-28 12:49 | -13.82260 | 25.53595 | 34168 ft | 482 kts | 345° |
| 2026-04-28 12:50 | -13.75767 | 25.51885 | 34164 ft | 482 kts | 345° |
| 2026-04-28 12:50 | -13.69280 | 25.50178 | 34168 ft | 482 kts | 345° |
| 2026-04-28 12:51 | -13.62770 | 25.48467 | 34162 ft | 482 kts | 345° |
| 2026-04-28 12:51 | -13.56256 | 25.46755 | 34166 ft | 482 kts | 345° |
| 2026-04-28 12:52 | -13.49756 | 25.45048 | 34159 ft | 482 kts | 345° |
| 2026-04-28 12:52 | -13.43269 | 25.43345 | 34158 ft | 481 kts | 345° |
| 2026-04-28 12:53 | -13.36778 | 25.41647 | 34151 ft | 481 kts | 345° |
| 2026-04-28 12:53 | -13.30291 | 25.39952 | 34150 ft | 481 kts | 345° |
| 2026-04-28 12:54 | -13.23810 | 25.38262 | 34146 ft | 480 kts | 345° |
| 2026-04-28 12:54 | -13.17347 | 25.36573 | 34144 ft | 480 kts | 345° |
| 2026-04-28 12:55 | -13.10869 | 25.34881 | 34148 ft | 480 kts | 345° |
| 2026-04-28 12:55 | -13.04393 | 25.33191 | 34147 ft | 480 kts | 345° |
| 2026-04-28 12:56 | -12.97947 | 25.31511 | 34153 ft | 480 kts | 345° |
| 2026-04-28 12:56 | -12.91474 | 25.29824 | 34146 ft | 480 kts | 345° |
| 2026-04-28 12:57 | -12.85003 | 25.28139 | 34151 ft | 480 kts | 345° |
| 2026-04-28 12:57 | -12.78538 | 25.26455 | 34149 ft | 479 kts | 345° |
| 2026-04-28 12:58 | -12.72070 | 25.24773 | 34145 ft | 479 kts | 345° |
| 2026-04-28 12:58 | -12.65605 | 25.23092 | 34151 ft | 479 kts | 345° |
| 2026-04-28 12:59 | -12.59137 | 25.21410 | 34149 ft | 479 kts | 345° |
| 2026-04-28 12:59 | -12.52671 | 25.19732 | 34150 ft | 479 kts | 345° |
| 2026-04-28 13:00 | -12.46209 | 25.18054 | 34151 ft | 479 kts | 345° |
| 2026-04-28 13:00 | -12.39738 | 25.16373 | 34144 ft | 480 kts | 345° |
| 2026-04-28 13:01 | -12.33269 | 25.14694 | 34143 ft | 480 kts | 345° |
| 2026-04-28 13:01 | -12.26795 | 25.13017 | 34151 ft | 480 kts | 345° |
| 2026-04-28 13:02 | -12.20315 | 25.11337 | 34147 ft | 481 kts | 345° |
| 2026-04-28 13:02 | -12.13827 | 25.09656 | 34153 ft | 481 kts | 345° |
| 2026-04-28 13:03 | -12.07340 | 25.07971 | 34146 ft | 481 kts | 345° |
| 2026-04-28 13:03 | -12.00854 | 25.06286 | 34152 ft | 481 kts | 345° |
| 2026-04-28 13:04 | -11.94367 | 25.04600 | 34154 ft | 481 kts | 345° |
| 2026-04-28 13:04 | -11.87882 | 25.02918 | 34145 ft | 481 kts | 345° |
| 2026-04-28 13:05 | -11.81407 | 25.01236 | 34148 ft | 481 kts | 345° |
| 2026-04-28 13:05 | -11.74920 | 24.99557 | 34157 ft | 480 kts | 345° |
| 2026-04-28 13:06 | -11.68433 | 24.97876 | 34159 ft | 481 kts | 345° |
| 2026-04-28 13:06 | -11.61946 | 24.96195 | 34159 ft | 481 kts | 345° |
| 2026-04-28 13:07 | -11.55455 | 24.94514 | 34153 ft | 482 kts | 345° |
| 2026-04-28 13:07 | -11.48958 | 24.92834 | 34139 ft | 482 kts | 345° |
| 2026-04-28 13:08 | -11.42451 | 24.91155 | 34140 ft | 482 kts | 345° |
| 2026-04-28 13:08 | -11.35948 | 24.89478 | 34137 ft | 482 kts | 345° |
| 2026-04-28 13:09 | -11.29447 | 24.87802 | 34137 ft | 482 kts | 345° |
| 2026-04-28 13:09 | -11.22949 | 24.86126 | 34142 ft | 482 kts | 345° |
| 2026-04-28 13:10 | -11.16449 | 24.84450 | 34141 ft | 482 kts | 345° |
| 2026-04-28 13:10 | -11.09951 | 24.82778 | 34137 ft | 482 kts | 345° |
| 2026-04-28 13:11 | -11.03462 | 24.81106 | 34139 ft | 481 kts | 345° |
| 2026-04-28 13:11 | -10.96971 | 24.79437 | 34138 ft | 481 kts | 345° |
| 2026-04-28 13:12 | -10.90531 | 24.77779 | 34137 ft | 480 kts | 345° |
| 2026-04-28 13:12 | -10.84014 | 24.76104 | 34139 ft | 480 kts | 345° |
| 2026-04-28 13:13 | -10.77540 | 24.74440 | 34137 ft | 480 kts | 345° |
| 2026-04-28 13:13 | -10.71067 | 24.72777 | 34140 ft | 480 kts | 345° |
| 2026-04-28 13:14 | -10.64602 | 24.71117 | 34140 ft | 480 kts | 345° |
| 2026-04-28 13:14 | -10.58123 | 24.69454 | 34140 ft | 480 kts | 345° |
| 2026-04-28 13:15 | -10.51688 | 24.67803 | 34140 ft | 480 kts | 345° |
| 2026-04-28 13:15 | -10.45206 | 24.66141 | 34138 ft | 480 kts | 345° |
| 2026-04-28 13:16 | -10.38725 | 24.64480 | 34140 ft | 480 kts | 345° |
| 2026-04-28 13:16 | -10.32249 | 24.62820 | 34125 ft | 480 kts | 345° |
| 2026-04-28 13:17 | -10.26822 | 24.61429 | 34117 ft | 480 kts | 345° |
| 2026-04-28 13:17 | -10.20353 | 24.59774 | 34122 ft | 479 kts | 345° |
| 2026-04-28 13:18 | -10.13883 | 24.58118 | 34117 ft | 479 kts | 345° |
| 2026-04-28 13:18 | -10.07421 | 24.56464 | 34119 ft | 479 kts | 345° |
| 2026-04-28 13:19 | -10.00966 | 24.54813 | 34122 ft | 479 kts | 345° |
| 2026-04-28 13:19 | -9.94506 | 24.53162 | 34121 ft | 479 kts | 346° |
| 2026-04-28 13:20 | -9.88045 | 24.51510 | 34120 ft | 479 kts | 345° |
| 2026-04-28 13:20 | -9.81583 | 24.49859 | 34122 ft | 479 kts | 346° |
| 2026-04-28 13:21 | -9.75121 | 24.48210 | 34118 ft | 479 kts | 345° |
| 2026-04-28 13:21 | -9.68651 | 24.46556 | 34121 ft | 480 kts | 345° |
| 2026-04-28 13:22 | -9.62227 | 24.44916 | 34118 ft | 480 kts | 346° |
| 2026-04-28 13:22 | -9.55748 | 24.43262 | 34121 ft | 480 kts | 346° |
| 2026-04-28 13:23 | -9.49272 | 24.41611 | 34118 ft | 480 kts | 346° |
| 2026-04-28 13:23 | -9.42793 | 24.39959 | 34119 ft | 480 kts | 346° |
| 2026-04-28 13:24 | -9.36272 | 24.38297 | 34120 ft | 480 kts | 346° |
| 2026-04-28 13:24 | -9.29830 | 24.36656 | 34120 ft | 481 kts | 346° |
| 2026-04-28 13:25 | -9.23344 | 24.35003 | 34116 ft | 481 kts | 346° |
| 2026-04-28 13:25 | -9.16858 | 24.33336 | 34107 ft | 481 kts | 345° |
| 2026-04-28 13:26 | -9.10379 | 24.31594 | 34109 ft | 481 kts | 345° |
| 2026-04-28 13:26 | -9.03920 | 24.29840 | 34111 ft | 481 kts | 345° |
| 2026-04-28 13:27 | -8.97446 | 24.28093 | 34103 ft | 481 kts | 345° |
| 2026-04-28 13:27 | -8.90974 | 24.26354 | 34096 ft | 481 kts | 345° |
| 2026-04-28 13:28 | -8.84500 | 24.24617 | 34085 ft | 482 kts | 345° |
| 2026-04-28 13:28 | -8.78022 | 24.22878 | 34079 ft | 482 kts | 345° |
| 2026-04-28 13:29 | -8.71536 | 24.21139 | 34086 ft | 482 kts | 345° |
| 2026-04-28 13:29 | -8.65051 | 24.19401 | 34086 ft | 482 kts | 345° |
| 2026-04-28 13:30 | -8.58557 | 24.17658 | 34085 ft | 482 kts | 345° |
| 2026-04-28 13:30 | -8.52068 | 24.15919 | 34087 ft | 483 kts | 345° |
| 2026-04-28 13:31 | -8.42334 | 24.13312 | 34081 ft | 482 kts | 345° |
| 2026-04-28 13:31 | -8.35851 | 24.11576 | 34081 ft | 482 kts | 345° |
| 2026-04-28 13:32 | -8.29369 | 24.09840 | 34078 ft | 482 kts | 345° |
| 2026-04-28 13:32 | -8.22883 | 24.08104 | 34083 ft | 482 kts | 345° |
| 2026-04-28 13:33 | -8.16396 | 24.06370 | 34086 ft | 482 kts | 345° |
| 2026-04-28 13:33 | -8.09915 | 24.04634 | 34081 ft | 482 kts | 345° |
| 2026-04-28 13:34 | -8.03420 | 24.02901 | 34082 ft | 482 kts | 345° |
| 2026-04-28 13:34 | -7.96884 | 24.01327 | 34080 ft | 483 kts | 347° |
| 2026-04-28 13:35 | -7.90324 | 23.99864 | 34074 ft | 483 kts | 347° |
| 2026-04-28 13:35 | -7.83767 | 23.98384 | 34076 ft | 483 kts | 347° |
| 2026-04-28 13:36 | -7.77218 | 23.96880 | 34073 ft | 483 kts | 347° |
| 2026-04-28 13:36 | -7.70671 | 23.95369 | 34075 ft | 482 kts | 347° |
| 2026-04-28 13:37 | -7.64127 | 23.93862 | 34073 ft | 482 kts | 347° |
| 2026-04-28 13:37 | -7.57619 | 23.92364 | 34075 ft | 483 kts | 347° |
| 2026-04-28 13:38 | -7.51073 | 23.90856 | 34075 ft | 483 kts | 347° |
| 2026-04-28 13:38 | -7.44517 | 23.89350 | 34069 ft | 483 kts | 347° |
| 2026-04-28 13:39 | -7.37955 | 23.87841 | 34085 ft | 484 kts | 347° |
| 2026-04-28 13:39 | -7.31381 | 23.86329 | 34071 ft | 485 kts | 347° |
| 2026-04-28 13:40 | -7.24799 | 23.84815 | 34070 ft | 485 kts | 347° |
| 2026-04-28 13:40 | -7.18233 | 23.83195 | 34066 ft | 486 kts | 346° |
| 2026-04-28 13:41 | -7.11672 | 23.81524 | 34064 ft | 486 kts | 346° |
| 2026-04-28 13:41 | -7.05102 | 23.79860 | 34063 ft | 487 kts | 346° |
| 2026-04-28 13:42 | -6.98534 | 23.78209 | 34066 ft | 487 kts | 346° |
| 2026-04-28 13:42 | -6.91955 | 23.76561 | 34064 ft | 487 kts | 346° |
| 2026-04-28 13:43 | -6.85375 | 23.74913 | 34069 ft | 487 kts | 346° |
| 2026-04-28 13:43 | -6.78792 | 23.73262 | 34067 ft | 488 kts | 346° |
| 2026-04-28 13:44 | -6.72205 | 23.71611 | 34067 ft | 488 kts | 346° |
| 2026-04-28 13:44 | -6.65617 | 23.69962 | 34066 ft | 488 kts | 346° |
| 2026-04-28 13:45 | -6.59031 | 23.68315 | 34060 ft | 488 kts | 346° |
| 2026-04-28 13:45 | -6.52435 | 23.66664 | 34068 ft | 488 kts | 346° |
| 2026-04-28 13:46 | -6.45843 | 23.65014 | 34061 ft | 488 kts | 346° |
| 2026-04-28 13:46 | -6.39249 | 23.63364 | 34055 ft | 489 kts | 346° |
| 2026-04-28 13:47 | -6.32651 | 23.61713 | 34054 ft | 488 kts | 346° |
| 2026-04-28 13:47 | -6.26064 | 23.60066 | 34054 ft | 488 kts | 346° |
| 2026-04-28 13:48 | -6.19478 | 23.58420 | 34057 ft | 488 kts | 346° |
| 2026-04-28 13:48 | -6.12892 | 23.56774 | 34054 ft | 487 kts | 347° |
| 2026-04-28 13:49 | -6.06244 | 23.55489 | 34064 ft | 486 kts | 351° |
| 2026-04-28 13:49 | -5.99566 | 23.54375 | 34054 ft | 487 kts | 351° |
| 2026-04-28 13:50 | -5.92880 | 23.53246 | 34066 ft | 487 kts | 351° |
| 2026-04-28 13:50 | -5.86186 | 23.52098 | 34053 ft | 488 kts | 351° |
| 2026-04-28 13:51 | -5.79491 | 23.50945 | 34056 ft | 488 kts | 351° |
| 2026-04-28 13:51 | -5.72793 | 23.49792 | 34053 ft | 488 kts | 351° |
| 2026-04-28 13:52 | -5.66093 | 23.48641 | 34032 ft | 489 kts | 351° |
| 2026-04-28 13:52 | -5.59390 | 23.47489 | 34048 ft | 489 kts | 351° |
| 2026-04-28 13:53 | -5.52730 | 23.46345 | 34046 ft | 489 kts | 351° |
| 2026-04-28 13:53 | -5.46026 | 23.45196 | 34046 ft | 489 kts | 351° |
| 2026-04-28 13:54 | -5.39325 | 23.44049 | 34049 ft | 489 kts | 351° |
| 2026-04-28 13:54 | -5.32617 | 23.42899 | 34036 ft | 489 kts | 351° |
| 2026-04-28 13:55 | -5.25905 | 23.41748 | 34028 ft | 489 kts | 351° |
| 2026-04-28 13:55 | -5.19189 | 23.40597 | 34029 ft | 489 kts | 351° |
| 2026-04-28 13:56 | -5.12475 | 23.39448 | 34047 ft | 489 kts | 351° |
| 2026-04-28 13:56 | -5.05758 | 23.38300 | 34039 ft | 489 kts | 351° |
| 2026-04-28 13:57 | -4.99039 | 23.37154 | 34029 ft | 490 kts | 351° |
| 2026-04-28 13:57 | -4.92319 | 23.36008 | 34023 ft | 490 kts | 351° |
| 2026-04-28 13:58 | -4.85600 | 23.34861 | 34023 ft | 490 kts | 351° |
| 2026-04-28 13:58 | -4.78880 | 23.33713 | 34015 ft | 490 kts | 351° |
| 2026-04-28 13:59 | -4.72152 | 23.32566 | 34005 ft | 490 kts | 351° |
| 2026-04-28 13:59 | -4.65427 | 23.31419 | 34006 ft | 490 kts | 351° |
| 2026-04-28 14:00 | -4.58709 | 23.30273 | 34011 ft | 490 kts | 351° |
| 2026-04-28 14:00 | -4.53121 | 23.29321 | 34010 ft | 490 kts | 351° |
| 2026-04-28 14:01 | -4.46400 | 23.28174 | 34010 ft | 490 kts | 351° |
| 2026-04-28 14:01 | -4.39682 | 23.27029 | 34013 ft | 490 kts | 351° |
| 2026-04-28 14:02 | -4.32955 | 23.25882 | 33964 ft | 491 kts | 351° |
| 2026-04-28 14:02 | -4.26221 | 23.24735 | 33969 ft | 491 kts | 351° |
| 2026-04-28 14:03 | -4.19485 | 23.23587 | 33958 ft | 491 kts | 351° |
| 2026-04-28 14:03 | -4.12754 | 23.22441 | 33965 ft | 490 kts | 351° |
| 2026-04-28 14:04 | -4.06026 | 23.21296 | 33958 ft | 490 kts | 351° |
| 2026-04-28 14:04 | -3.99312 | 23.20085 | 33964 ft | 490 kts | 349° |
| 2026-04-28 14:05 | -3.92621 | 23.18765 | 33968 ft | 490 kts | 349° |
| 2026-04-28 14:05 | -3.85938 | 23.17448 | 33961 ft | 490 kts | 349° |
| 2026-04-28 14:06 | -3.79244 | 23.16147 | 33963 ft | 490 kts | 349° |
| 2026-04-28 14:06 | -3.72554 | 23.14854 | 33968 ft | 490 kts | 349° |
| 2026-04-28 14:07 | -3.65857 | 23.13559 | 33960 ft | 490 kts | 349° |
| 2026-04-28 14:07 | -3.59158 | 23.12262 | 33970 ft | 490 kts | 349° |
| 2026-04-28 14:08 | -3.52456 | 23.10965 | 33962 ft | 491 kts | 349° |
| 2026-04-28 14:08 | -3.45747 | 23.09666 | 33961 ft | 491 kts | 349° |
| 2026-04-28 14:09 | -3.39040 | 23.08370 | 33966 ft | 491 kts | 349° |
| 2026-04-28 14:09 | -3.32335 | 23.07072 | 33960 ft | 491 kts | 349° |
| 2026-04-28 14:10 | -3.25634 | 23.05780 | 33948 ft | 490 kts | 349° |
| 2026-04-28 14:10 | -3.18942 | 23.04489 | 33953 ft | 490 kts | 349° |
| 2026-04-28 14:11 | -3.12253 | 23.03200 | 33959 ft | 489 kts | 349° |
| 2026-04-28 14:11 | -3.05576 | 23.01913 | 33948 ft | 489 kts | 349° |
| 2026-04-28 14:12 | -2.98891 | 23.00625 | 33962 ft | 489 kts | 349° |
| 2026-04-28 14:12 | -2.92206 | 22.99336 | 33958 ft | 489 kts | 350° |
| 2026-04-28 14:13 | -2.85562 | 22.98054 | 33948 ft | 489 kts | 350° |
| 2026-04-28 14:13 | -2.78830 | 22.96756 | 33956 ft | 489 kts | 350° |
| 2026-04-28 14:14 | -2.72140 | 22.95469 | 33952 ft | 489 kts | 350° |
| 2026-04-28 14:14 | -2.65497 | 22.94189 | 33953 ft | 490 kts | 350° |
| 2026-04-28 14:15 | -2.58805 | 22.92899 | 33954 ft | 490 kts | 350° |
| 2026-04-28 14:15 | -2.52110 | 22.91610 | 33947 ft | 490 kts | 350° |
| 2026-04-28 14:16 | -2.45419 | 22.90321 | 33950 ft | 490 kts | 350° |
| 2026-04-28 14:16 | -2.38723 | 22.89032 | 33956 ft | 490 kts | 350° |
| 2026-04-28 14:17 | -2.32030 | 22.87743 | 33969 ft | 490 kts | 350° |
| 2026-04-28 14:17 | -2.25328 | 22.86451 | 33959 ft | 490 kts | 350° |
| 2026-04-28 14:18 | -2.18633 | 22.85164 | 33963 ft | 490 kts | 350° |
| 2026-04-28 14:18 | -2.11933 | 22.83873 | 33959 ft | 490 kts | 350° |
| 2026-04-28 14:19 | -2.05230 | 22.82583 | 33959 ft | 490 kts | 350° |
| 2026-04-28 14:19 | -1.98533 | 22.81293 | 33977 ft | 491 kts | 350° |
| 2026-04-28 14:20 | -1.91803 | 22.79997 | 33949 ft | 494 kts | 350° |
| 2026-04-28 14:20 | -1.85060 | 22.78700 | 33956 ft | 493 kts | 350° |
| 2026-04-28 14:21 | -1.78340 | 22.77407 | 33959 ft | 491 kts | 350° |
| 2026-04-28 14:21 | -1.71633 | 22.76115 | 33958 ft | 490 kts | 350° |
| 2026-04-28 14:22 | -1.64949 | 22.74830 | 33964 ft | 489 kts | 350° |
| 2026-04-28 14:22 | -1.58261 | 22.73543 | 33958 ft | 490 kts | 350° |
| 2026-04-28 14:23 | -1.51565 | 22.72255 | 33973 ft | 490 kts | 350° |
| 2026-04-28 14:23 | -1.44863 | 22.70965 | 33953 ft | 491 kts | 350° |
| 2026-04-28 14:24 | -1.38150 | 22.69674 | 33963 ft | 491 kts | 350° |
| 2026-04-28 14:24 | -1.31433 | 22.68382 | 33964 ft | 492 kts | 350° |
| 2026-04-28 14:25 | -1.24710 | 22.67089 | 33964 ft | 492 kts | 350° |
| 2026-04-28 14:25 | -1.17988 | 22.65796 | 33966 ft | 492 kts | 350° |
| 2026-04-28 14:26 | -1.11252 | 22.64500 | 33960 ft | 493 kts | 350° |
| 2026-04-28 14:26 | -1.04518 | 22.63204 | 33967 ft | 493 kts | 350° |
| 2026-04-28 14:27 | -0.97827 | 22.61918 | 33947 ft | 493 kts | 350° |
| 2026-04-28 14:27 | -0.91038 | 22.60612 | 33937 ft | 494 kts | 350° |
| 2026-04-28 14:28 | -0.84290 | 22.59314 | 33943 ft | 494 kts | 350° |
| 2026-04-28 14:28 | -0.77538 | 22.58008 | 33937 ft | 494 kts | 350° |
| 2026-04-28 14:29 | -0.70786 | 22.56703 | 33944 ft | 495 kts | 350° |
| 2026-04-28 14:29 | -0.64022 | 22.55397 | 33937 ft | 495 kts | 350° |
| 2026-04-28 14:30 | -0.57251 | 22.54088 | 33939 ft | 496 kts | 350° |
| 2026-04-28 14:30 | -0.50470 | 22.52776 | 33946 ft | 497 kts | 350° |
| 2026-04-28 14:31 | -0.43679 | 22.51465 | 33945 ft | 498 kts | 350° |
| 2026-04-28 14:31 | -0.36875 | 22.50149 | 33947 ft | 498 kts | 350° |
| 2026-04-28 14:32 | -0.30060 | 22.48832 | 33935 ft | 499 kts | 350° |
| 2026-04-28 14:32 | -0.23288 | 22.47524 | 33948 ft | 499 kts | 350° |
| 2026-04-28 14:33 | -0.16464 | 22.46205 | 33952 ft | 500 kts | 350° |
| 2026-04-28 14:33 | -0.09585 | 22.44875 | 33935 ft | 501 kts | 350° |
| 2026-04-28 14:34 | 0.00677 | 22.42891 | 33940 ft | 501 kts | 350° |
| 2026-04-28 14:35 | 0.07520 | 22.41579 | 33946 ft | 501 kts | 350° |
| 2026-04-28 14:35 | 0.14369 | 22.40286 | 33945 ft | 501 kts | 350° |
| 2026-04-28 14:36 | 0.21219 | 22.38982 | 33948 ft | 502 kts | 350° |
| 2026-04-28 14:36 | 0.28081 | 22.37678 | 33943 ft | 502 kts | 350° |
| 2026-04-28 14:37 | 0.34950 | 22.36370 | 33946 ft | 502 kts | 350° |
| 2026-04-28 14:37 | 0.41749 | 22.35061 | 33936 ft | 502 kts | 350° |
| 2026-04-28 14:38 | 0.48651 | 22.33730 | 33949 ft | 501 kts | 350° |
| 2026-04-28 14:38 | 0.55451 | 22.32422 | 33952 ft | 501 kts | 350° |
| 2026-04-28 14:39 | 0.62282 | 22.31108 | 33961 ft | 500 kts | 350° |
| 2026-04-28 14:39 | 0.69115 | 22.29792 | 33951 ft | 499 kts | 350° |
| 2026-04-28 14:40 | 0.75942 | 22.28473 | 33952 ft | 499 kts | 350° |
| 2026-04-28 14:40 | 0.82764 | 22.27154 | 33949 ft | 499 kts | 350° |
| 2026-04-28 14:41 | 0.89581 | 22.25835 | 33952 ft | 499 kts | 350° |
| 2026-04-28 14:41 | 0.96393 | 22.24518 | 33951 ft | 499 kts | 350° |
| 2026-04-28 14:42 | 1.03208 | 22.23201 | 33959 ft | 499 kts | 350° |
| 2026-04-28 14:42 | 1.10021 | 22.21883 | 33959 ft | 499 kts | 350° |
| 2026-04-28 14:43 | 1.16838 | 22.20565 | 33952 ft | 499 kts | 350° |
| 2026-04-28 14:43 | 1.23665 | 22.19246 | 33946 ft | 500 kts | 350° |
| 2026-04-28 14:44 | 1.30495 | 22.17926 | 33940 ft | 500 kts | 350° |
| 2026-04-28 14:44 | 1.37329 | 22.16615 | 33946 ft | 500 kts | 350° |
| 2026-04-28 14:45 | 1.44172 | 22.15301 | 33937 ft | 501 kts | 350° |
| 2026-04-28 14:45 | 1.49910 | 22.14199 | 33946 ft | 501 kts | 350° |
| 2026-04-28 14:46 | 1.56758 | 22.12883 | 33938 ft | 501 kts | 350° |
| 2026-04-28 14:46 | 1.63566 | 22.11573 | 33945 ft | 502 kts | 350° |
| 2026-04-28 14:47 | 1.70423 | 22.10254 | 33945 ft | 502 kts | 350° |
| 2026-04-28 14:47 | 1.77293 | 22.08934 | 33943 ft | 503 kts | 350° |
| 2026-04-28 14:48 | 1.84165 | 22.07613 | 33940 ft | 503 kts | 350° |
| 2026-04-28 14:48 | 1.91091 | 22.06281 | 33943 ft | 503 kts | 350° |
| 2026-04-28 14:49 | 1.97973 | 22.04957 | 33936 ft | 504 kts | 350° |
| 2026-04-28 14:49 | 2.04858 | 22.03632 | 33945 ft | 503 kts | 350° |
| 2026-04-28 14:50 | 2.11691 | 22.02317 | 33943 ft | 504 kts | 350° |
| 2026-04-28 14:50 | 2.18576 | 22.01007 | 33938 ft | 503 kts | 350° |
| 2026-04-28 14:51 | 2.25452 | 21.99690 | 33934 ft | 503 kts | 350° |
| 2026-04-28 14:51 | 2.32324 | 21.98363 | 33935 ft | 503 kts | 350° |
| 2026-04-28 14:52 | 2.39190 | 21.97036 | 33941 ft | 502 kts | 350° |
| 2026-04-28 14:52 | 2.46054 | 21.95711 | 33930 ft | 502 kts | 350° |
| 2026-04-28 14:53 | 2.52910 | 21.94388 | 33936 ft | 502 kts | 350° |
| 2026-04-28 14:53 | 2.59772 | 21.93066 | 33937 ft | 502 kts | 350° |
| 2026-04-28 14:54 | 2.66629 | 21.91744 | 33935 ft | 502 kts | 350° |
| 2026-04-28 14:54 | 2.73485 | 21.90420 | 33933 ft | 502 kts | 350° |
| 2026-04-28 14:55 | 2.80340 | 21.89097 | 33934 ft | 502 kts | 350° |
| 2026-04-28 14:55 | 2.87195 | 21.87773 | 33934 ft | 502 kts | 350° |
| 2026-04-28 14:56 | 2.94049 | 21.86451 | 33936 ft | 502 kts | 351° |
| 2026-04-28 14:56 | 3.00907 | 21.85129 | 33935 ft | 502 kts | 351° |
| 2026-04-28 14:57 | 3.07757 | 21.83804 | 33933 ft | 501 kts | 351° |
| 2026-04-28 14:57 | 3.14601 | 21.82481 | 33918 ft | 501 kts | 351° |
| 2026-04-28 14:58 | 3.21449 | 21.81160 | 33911 ft | 501 kts | 351° |
| 2026-04-28 14:58 | 3.28298 | 21.79837 | 33911 ft | 501 kts | 351° |
| 2026-04-28 14:59 | 3.35134 | 21.78517 | 33918 ft | 500 kts | 351° |
| 2026-04-28 14:59 | 3.41973 | 21.77195 | 33917 ft | 500 kts | 351° |
| 2026-04-28 15:00 | 3.48805 | 21.75875 | 33917 ft | 500 kts | 351° |
| 2026-04-28 15:00 | 3.55636 | 21.74554 | 33918 ft | 500 kts | 351° |
| 2026-04-28 15:01 | 3.62449 | 21.73083 | 33918 ft | 501 kts | 348° |
| 2026-04-28 15:01 | 3.69208 | 21.71384 | 33919 ft | 501 kts | 347° |
| 2026-04-28 15:02 | 3.75969 | 21.69670 | 33918 ft | 502 kts | 348° |
| 2026-04-28 15:02 | 3.82748 | 21.67976 | 33916 ft | 502 kts | 348° |
| 2026-04-28 15:03 | 3.89525 | 21.66294 | 33917 ft | 502 kts | 348° |
| 2026-04-28 15:03 | 3.96305 | 21.64611 | 33917 ft | 502 kts | 348° |
| 2026-04-28 15:04 | 4.03085 | 21.62926 | 33911 ft | 502 kts | 348° |
| 2026-04-28 15:04 | 4.09865 | 21.61239 | 33906 ft | 502 kts | 348° |
| 2026-04-28 15:05 | 4.16639 | 21.59554 | 33909 ft | 501 kts | 348° |
| 2026-04-28 15:05 | 4.23411 | 21.57871 | 33908 ft | 501 kts | 348° |
| 2026-04-28 15:06 | 4.30180 | 21.56188 | 33911 ft | 501 kts | 348° |
| 2026-04-28 15:06 | 4.36943 | 21.54504 | 33912 ft | 501 kts | 348° |
| 2026-04-28 15:07 | 4.43706 | 21.52821 | 33904 ft | 501 kts | 348° |
| 2026-04-28 15:07 | 4.50466 | 21.51139 | 33911 ft | 501 kts | 348° |
| 2026-04-28 15:08 | 4.57225 | 21.49455 | 33909 ft | 500 kts | 348° |
| 2026-04-28 15:08 | 4.63984 | 21.47772 | 33906 ft | 500 kts | 347° |
| 2026-04-28 15:09 | 4.70694 | 21.46101 | 33905 ft | 500 kts | 348° |
| 2026-04-28 15:09 | 4.77443 | 21.44419 | 33906 ft | 500 kts | 348° |
| 2026-04-28 15:10 | 4.84194 | 21.42737 | 33904 ft | 500 kts | 348° |
| 2026-04-28 15:10 | 4.90939 | 21.41055 | 33910 ft | 500 kts | 348° |
| 2026-04-28 15:11 | 4.97681 | 21.39374 | 33901 ft | 499 kts | 348° |
| 2026-04-28 15:11 | 5.04424 | 21.37693 | 33911 ft | 499 kts | 347° |
| 2026-04-28 15:12 | 5.11168 | 21.36010 | 33907 ft | 499 kts | 347° |
| 2026-04-28 15:12 | 5.17927 | 21.34327 | 34143 ft | 503 kts | 347° |
| 2026-04-28 15:12 | 5.21322 | 21.33481 | 34534 ft | 501 kts | 347° |
| 2026-04-28 15:13 | 5.24697 | 21.32639 | 34951 ft | 499 kts | 347° |
| 2026-04-28 15:13 | 5.28057 | 21.31799 | 35380 ft | 496 kts | 347° |
| 2026-04-28 15:13 | 5.31396 | 21.30965 | 35790 ft | 493 kts | 347° |
| 2026-04-28 15:13 | 5.34727 | 21.30134 | 35914 ft | 496 kts | 347° |
| 2026-04-28 15:14 | 5.38086 | 21.29296 | 35900 ft | 497 kts | 347° |
| 2026-04-28 15:14 | 5.44768 | 21.27629 | 35895 ft | 492 kts | 347° |
| 2026-04-28 15:15 | 5.51392 | 21.25975 | 35897 ft | 489 kts | 347° |
| 2026-04-28 15:15 | 5.57987 | 21.24327 | 35898 ft | 488 kts | 347° |
| 2026-04-28 15:16 | 5.64580 | 21.22680 | 35900 ft | 488 kts | 347° |
| 2026-04-28 15:16 | 5.71178 | 21.21032 | 35899 ft | 489 kts | 347° |
| 2026-04-28 15:17 | 5.77785 | 21.19380 | 35899 ft | 490 kts | 347° |
| 2026-04-28 15:17 | 5.84399 | 21.17728 | 35901 ft | 491 kts | 347° |
| 2026-04-28 15:18 | 5.91039 | 21.16068 | 35898 ft | 492 kts | 347° |
| 2026-04-28 15:19 | 5.94955 | 21.15088 | 35900 ft | 492 kts | 347° |
| 2026-04-28 15:19 | 6.01488 | 21.13454 | 35900 ft | 493 kts | 347° |
| 2026-04-28 15:20 | 6.08141 | 21.11789 | 35898 ft | 493 kts | 347° |
| 2026-04-28 15:20 | 6.14798 | 21.10123 | 35898 ft | 493 kts | 347° |
| 2026-04-28 15:21 | 6.21456 | 21.08456 | 35899 ft | 493 kts | 347° |
| 2026-04-28 15:21 | 6.28107 | 21.06791 | 35898 ft | 493 kts | 347° |
| 2026-04-28 15:22 | 6.34762 | 21.05124 | 35898 ft | 493 kts | 347° |
| 2026-04-28 15:22 | 6.41412 | 21.03458 | 35898 ft | 492 kts | 347° |
| 2026-04-28 15:23 | 6.48052 | 21.01793 | 35897 ft | 492 kts | 347° |
| 2026-04-28 15:23 | 6.54646 | 21.00140 | 35900 ft | 492 kts | 347° |
| 2026-04-28 15:24 | 6.61296 | 20.98526 | 35896 ft | 491 kts | 347° |
| 2026-04-28 15:24 | 6.67948 | 20.96961 | 35899 ft | 491 kts | 347° |
| 2026-04-28 15:25 | 6.74599 | 20.95390 | 35899 ft | 491 kts | 347° |
| 2026-04-28 15:25 | 6.81248 | 20.93812 | 35898 ft | 491 kts | 347° |
| 2026-04-28 15:26 | 6.87899 | 20.92230 | 35897 ft | 491 kts | 347° |
| 2026-04-28 15:26 | 6.94552 | 20.90646 | 35899 ft | 492 kts | 347° |
| 2026-04-28 15:27 | 7.01218 | 20.89060 | 35898 ft | 492 kts | 347° |
| 2026-04-28 15:27 | 7.07885 | 20.87473 | 35897 ft | 493 kts | 347° |
| 2026-04-28 15:28 | 7.13479 | 20.86140 | 35898 ft | 493 kts | 347° |
| 2026-04-28 15:28 | 7.20158 | 20.84549 | 35898 ft | 493 kts | 347° |
| 2026-04-28 15:29 | 7.26799 | 20.82972 | 35890 ft | 494 kts | 347° |
| 2026-04-28 15:29 | 7.33493 | 20.81388 | 35889 ft | 494 kts | 347° |
| 2026-04-28 15:30 | 7.40190 | 20.79801 | 35885 ft | 495 kts | 347° |
| 2026-04-28 15:30 | 7.46889 | 20.78213 | 35890 ft | 495 kts | 347° |
| 2026-04-28 15:31 | 7.53594 | 20.76623 | 35890 ft | 495 kts | 347° |
| 2026-04-28 15:31 | 7.60306 | 20.75031 | 35889 ft | 496 kts | 347° |
| 2026-04-28 15:32 | 7.67028 | 20.73436 | 35888 ft | 496 kts | 347° |
| 2026-04-28 15:32 | 7.73754 | 20.71838 | 35890 ft | 496 kts | 347° |
| 2026-04-28 15:33 | 7.80478 | 20.70241 | 35888 ft | 497 kts | 347° |
| 2026-04-28 15:33 | 7.87209 | 20.68642 | 35888 ft | 497 kts | 347° |
| 2026-04-28 15:34 | 7.93943 | 20.67041 | 35888 ft | 497 kts | 347° |
| 2026-04-28 15:34 | 8.00680 | 20.65439 | 35888 ft | 498 kts | 347° |
| 2026-04-28 15:35 | 8.07420 | 20.63834 | 35889 ft | 498 kts | 347° |
| 2026-04-28 15:35 | 8.17544 | 20.61417 | 35889 ft | 499 kts | 347° |
| 2026-04-28 15:36 | 8.24295 | 20.59806 | 35890 ft | 499 kts | 347° |
| 2026-04-28 15:36 | 8.31050 | 20.58192 | 35888 ft | 499 kts | 347° |
| 2026-04-28 15:37 | 8.37807 | 20.56578 | 35889 ft | 499 kts | 347° |
| 2026-04-28 15:37 | 8.44565 | 20.54962 | 35891 ft | 499 kts | 347° |
| 2026-04-28 15:38 | 8.51312 | 20.53349 | 35887 ft | 498 kts | 347° |
| 2026-04-28 15:38 | 8.58056 | 20.51737 | 35887 ft | 498 kts | 347° |
| 2026-04-28 15:39 | 8.64795 | 20.50124 | 35890 ft | 497 kts | 347° |
| 2026-04-28 15:39 | 8.71528 | 20.48513 | 35895 ft | 497 kts | 347° |
| 2026-04-28 15:40 | 8.78247 | 20.46905 | 35899 ft | 496 kts | 347° |
| 2026-04-28 15:40 | 8.84964 | 20.45296 | 35899 ft | 496 kts | 347° |
| 2026-04-28 15:41 | 8.91676 | 20.43688 | 35896 ft | 496 kts | 346° |
| 2026-04-28 15:41 | 8.98389 | 20.42079 | 35898 ft | 495 kts | 346° |
| 2026-04-28 15:42 | 9.05095 | 20.40471 | 35899 ft | 495 kts | 346° |
| 2026-04-28 15:42 | 9.11802 | 20.38862 | 35898 ft | 495 kts | 346° |
| 2026-04-28 15:43 | 9.18504 | 20.37253 | 35897 ft | 495 kts | 346° |
| 2026-04-28 15:43 | 9.25203 | 20.35645 | 35886 ft | 495 kts | 346° |
| 2026-04-28 15:44 | 9.31908 | 20.34034 | 35881 ft | 495 kts | 346° |
| 2026-04-28 15:44 | 9.38604 | 20.32427 | 35867 ft | 495 kts | 346° |
| 2026-04-28 15:45 | 9.45303 | 20.30814 | 35881 ft | 495 kts | 346° |
| 2026-04-28 15:45 | 9.48577 | 20.30028 | 35867 ft | 495 kts | 346° |
| 2026-04-28 15:46 | 9.55277 | 20.28417 | 35883 ft | 494 kts | 346° |
| 2026-04-28 15:46 | 9.61973 | 20.26806 | 35881 ft | 494 kts | 346° |
| 2026-04-28 15:47 | 9.68662 | 20.25198 | 35872 ft | 494 kts | 346° |
| 2026-04-28 15:47 | 9.75349 | 20.23589 | 35881 ft | 494 kts | 346° |
| 2026-04-28 15:48 | 9.82035 | 20.21978 | 35883 ft | 494 kts | 346° |
| 2026-04-28 15:48 | 9.88727 | 20.20365 | 35863 ft | 494 kts | 346° |
| 2026-04-28 15:49 | 9.95410 | 20.18754 | 35882 ft | 494 kts | 346° |
| 2026-04-28 15:49 | 10.02098 | 20.17142 | 35883 ft | 494 kts | 346° |
| 2026-04-28 15:50 | 10.08783 | 20.15529 | 35867 ft | 494 kts | 346° |
| 2026-04-28 15:50 | 10.15467 | 20.13917 | 35883 ft | 494 kts | 346° |
| 2026-04-28 15:51 | 10.22154 | 20.12302 | 35884 ft | 494 kts | 346° |
| 2026-04-28 15:51 | 10.28839 | 20.10687 | 35881 ft | 494 kts | 346° |
| 2026-04-28 15:52 | 10.35520 | 20.09071 | 35882 ft | 494 kts | 346° |
| 2026-04-28 15:52 | 10.42209 | 20.07454 | 35879 ft | 494 kts | 346° |
| 2026-04-28 15:53 | 10.48851 | 20.05848 | 35880 ft | 494 kts | 346° |
| 2026-04-28 15:53 | 10.55542 | 20.04228 | 35885 ft | 494 kts | 346° |
| 2026-04-28 15:54 | 10.62272 | 20.02599 | 35860 ft | 494 kts | 346° |
| 2026-04-28 15:54 | 10.68910 | 20.00991 | 35880 ft | 494 kts | 346° |
| 2026-04-28 15:55 | 10.75644 | 19.99360 | 35870 ft | 494 kts | 346° |
| 2026-04-28 15:55 | 10.82276 | 19.97752 | 35870 ft | 493 kts | 346° |
| 2026-04-28 15:56 | 10.88960 | 19.96131 | 35873 ft | 493 kts | 346° |
| 2026-04-28 15:56 | 10.95634 | 19.94510 | 35880 ft | 493 kts | 346° |
| 2026-04-28 15:57 | 11.02306 | 19.92891 | 35879 ft | 493 kts | 346° |
| 2026-04-28 15:57 | 11.08978 | 19.91271 | 35866 ft | 493 kts | 346° |
| 2026-04-28 15:58 | 11.15687 | 19.89641 | 35879 ft | 493 kts | 346° |
| 2026-04-28 15:58 | 11.22356 | 19.88018 | 35862 ft | 493 kts | 346° |
| 2026-04-28 15:59 | 11.27894 | 19.86672 | 35861 ft | 493 kts | 346° |
| 2026-04-28 15:59 | 11.35643 | 19.84787 | 35880 ft | 492 kts | 346° |
| 2026-04-28 16:00 | 11.42308 | 19.83164 | 35879 ft | 492 kts | 346° |
| 2026-04-28 16:00 | 11.48971 | 19.81541 | 35858 ft | 492 kts | 346° |
| 2026-04-28 16:01 | 11.55628 | 19.79917 | 35881 ft | 492 kts | 346° |
| 2026-04-28 16:01 | 11.62291 | 19.78293 | 35880 ft | 492 kts | 346° |
| 2026-04-28 16:02 | 11.68975 | 19.76781 | 35862 ft | 492 kts | 348° |
| 2026-04-28 16:02 | 11.75704 | 19.75493 | 35869 ft | 492 kts | 349° |
| 2026-04-28 16:03 | 11.82432 | 19.74215 | 35878 ft | 492 kts | 349° |
| 2026-04-28 16:03 | 11.89153 | 19.72902 | 35866 ft | 492 kts | 348° |
| 2026-04-28 16:04 | 11.95868 | 19.71567 | 35865 ft | 492 kts | 348° |
| 2026-04-28 16:04 | 12.01493 | 19.70447 | 35879 ft | 492 kts | 348° |
| 2026-04-28 16:05 | 12.09299 | 19.68894 | 35879 ft | 492 kts | 348° |
| 2026-04-28 16:05 | 12.16014 | 19.67559 | 35869 ft | 492 kts | 348° |
| 2026-04-28 16:06 | 12.22731 | 19.66223 | 35881 ft | 492 kts | 348° |
| 2026-04-28 16:06 | 12.29442 | 19.64888 | 35882 ft | 491 kts | 348° |
| 2026-04-28 16:07 | 12.36158 | 19.63550 | 35874 ft | 492 kts | 348° |
| 2026-04-28 16:08 | 12.46228 | 19.61542 | 35880 ft | 492 kts | 348° |
| 2026-04-28 16:08 | 12.52939 | 19.60205 | 35879 ft | 491 kts | 348° |
| 2026-04-28 16:09 | 12.63000 | 19.58198 | 35866 ft | 491 kts | 348° |
| 2026-04-28 16:10 | 12.73051 | 19.56190 | 35876 ft | 490 kts | 348° |
| 2026-04-28 16:10 | 12.81961 | 19.54409 | 35881 ft | 490 kts | 348° |
| 2026-04-28 16:11 | 12.95347 | 19.51732 | 35883 ft | 490 kts | 348° |
| 2026-04-28 16:12 | 13.05379 | 19.49725 | 35884 ft | 490 kts | 348° |
| 2026-04-28 16:13 | 13.15410 | 19.47720 | 35884 ft | 490 kts | 348° |
| 2026-04-28 16:14 | 13.28792 | 19.45040 | 35880 ft | 490 kts | 348° |
| 2026-04-28 16:15 | 13.42159 | 19.42359 | 35867 ft | 489 kts | 348° |
| 2026-04-28 16:15 | 13.48841 | 19.41018 | 35879 ft | 489 kts | 348° |
| 2026-04-28 16:16 | 13.58866 | 19.39006 | 35864 ft | 489 kts | 348° |
| 2026-04-28 16:17 | 13.68887 | 19.36991 | 35865 ft | 489 kts | 348° |
| 2026-04-28 16:17 | 13.75568 | 19.35647 | 35879 ft | 489 kts | 348° |
| 2026-04-28 16:18 | 13.82244 | 19.34303 | 35874 ft | 489 kts | 348° |
| 2026-04-28 16:18 | 13.88922 | 19.32958 | 35871 ft | 489 kts | 348° |
| 2026-04-28 16:19 | 13.95604 | 19.31610 | 35874 ft | 489 kts | 348° |
| 2026-04-28 16:19 | 14.02283 | 19.30260 | 35870 ft | 489 kts | 348° |
| 2026-04-28 16:20 | 14.08958 | 19.28909 | 35878 ft | 489 kts | 348° |
| 2026-04-28 16:20 | 14.15628 | 19.27558 | 35879 ft | 489 kts | 348° |
| 2026-04-28 16:21 | 14.22302 | 19.26205 | 35869 ft | 488 kts | 348° |
| 2026-04-28 16:21 | 14.28968 | 19.24855 | 35872 ft | 488 kts | 348° |
| 2026-04-28 16:22 | 14.35583 | 19.23512 | 35875 ft | 488 kts | 347° |
| 2026-04-28 16:22 | 14.42243 | 19.22160 | 35864 ft | 488 kts | 347° |
| 2026-04-28 16:23 | 14.48904 | 19.20807 | 35862 ft | 488 kts | 347° |
| 2026-04-28 16:23 | 14.55569 | 19.19453 | 35872 ft | 488 kts | 347° |
| 2026-04-28 16:24 | 14.62225 | 19.18100 | 35869 ft | 488 kts | 348° |
| 2026-04-28 16:24 | 14.68886 | 19.16745 | 35879 ft | 488 kts | 347° |
| 2026-04-28 16:25 | 14.75548 | 19.15388 | 35875 ft | 488 kts | 347° |
| 2026-04-28 16:25 | 14.82203 | 19.14031 | 35869 ft | 488 kts | 347° |
| 2026-04-28 16:26 | 14.88860 | 19.12675 | 35879 ft | 487 kts | 347° |
| 2026-04-28 16:26 | 14.95519 | 19.11320 | 35870 ft | 487 kts | 347° |
| 2026-04-28 16:27 | 15.02172 | 19.09963 | 35872 ft | 488 kts | 347° |
| 2026-04-28 16:28 | 15.12155 | 19.07925 | 35870 ft | 487 kts | 347° |
| 2026-04-28 16:28 | 15.18807 | 19.06567 | 35871 ft | 487 kts | 347° |
| 2026-04-28 16:29 | 15.28783 | 19.04528 | 35880 ft | 487 kts | 347° |
| 2026-04-28 16:30 | 15.38758 | 19.02486 | 35880 ft | 487 kts | 347° |
| 2026-04-28 16:30 | 15.45407 | 19.01125 | 35867 ft | 487 kts | 347° |
| 2026-04-28 16:31 | 15.52050 | 18.99764 | 35873 ft | 487 kts | 347° |
| 2026-04-28 16:31 | 15.58694 | 18.98400 | 35859 ft | 487 kts | 347° |
| 2026-04-28 16:32 | 15.65339 | 18.97037 | 35863 ft | 487 kts | 347° |
| 2026-04-28 16:32 | 15.75304 | 18.94992 | 35856 ft | 487 kts | 347° |
| 2026-04-28 16:33 | 15.80830 | 18.93857 | 35865 ft | 487 kts | 347° |
| 2026-04-28 16:33 | 15.88592 | 18.92259 | 35862 ft | 487 kts | 347° |
| 2026-04-28 16:34 | 15.95235 | 18.90892 | 35866 ft | 487 kts | 347° |
| 2026-04-28 16:34 | 16.01876 | 18.89525 | 35870 ft | 487 kts | 347° |
| 2026-04-28 16:35 | 16.08518 | 18.88156 | 35866 ft | 486 kts | 346° |
| 2026-04-28 16:35 | 16.15146 | 18.86788 | 35861 ft | 485 kts | 346° |
| 2026-04-28 16:36 | 16.21766 | 18.85422 | 35865 ft | 485 kts | 346° |
| 2026-04-28 16:36 | 16.28381 | 18.84056 | 35865 ft | 484 kts | 346° |
| 2026-04-28 16:37 | 16.34988 | 18.82691 | 35857 ft | 484 kts | 346° |
| 2026-04-28 16:38 | 16.44886 | 18.80644 | 35856 ft | 483 kts | 346° |
| 2026-04-28 16:38 | 16.51482 | 18.79278 | 35858 ft | 483 kts | 346° |
| 2026-04-28 16:39 | 16.58076 | 18.77913 | 35857 ft | 483 kts | 346° |
| 2026-04-28 16:39 | 16.64671 | 18.76545 | 35859 ft | 483 kts | 346° |
| 2026-04-28 16:40 | 16.71225 | 18.75185 | 35867 ft | 483 kts | 346° |
| 2026-04-28 16:40 | 16.77817 | 18.73816 | 35864 ft | 483 kts | 346° |
| 2026-04-28 16:41 | 16.84409 | 18.72447 | 35857 ft | 483 kts | 346° |
| 2026-04-28 16:41 | 16.91006 | 18.71075 | 35860 ft | 483 kts | 346° |
| 2026-04-28 16:42 | 16.97599 | 18.69705 | 35857 ft | 483 kts | 346° |
| 2026-04-28 16:42 | 17.04192 | 18.68332 | 35864 ft | 483 kts | 346° |
| 2026-04-28 16:43 | 17.10781 | 18.66960 | 35861 ft | 483 kts | 346° |
| 2026-04-28 16:43 | 17.17360 | 18.65587 | 35864 ft | 482 kts | 346° |
| 2026-04-28 16:44 | 17.23932 | 18.64215 | 35855 ft | 481 kts | 346° |
| 2026-04-28 16:44 | 17.30495 | 18.62845 | 35864 ft | 480 kts | 346° |
| 2026-04-28 16:45 | 17.37049 | 18.61476 | 35867 ft | 480 kts | 346° |
| 2026-04-28 16:45 | 17.43596 | 18.60108 | 35869 ft | 480 kts | 346° |
| 2026-04-28 16:46 | 17.50139 | 18.58739 | 35877 ft | 479 kts | 346° |
| 2026-04-28 16:46 | 17.56679 | 18.57370 | 35881 ft | 479 kts | 345° |
| 2026-04-28 16:47 | 17.63218 | 18.55998 | 35866 ft | 479 kts | 345° |
| 2026-04-28 16:47 | 17.69756 | 18.54628 | 35879 ft | 479 kts | 345° |
| 2026-04-28 16:48 | 17.76291 | 18.53257 | 35869 ft | 479 kts | 345° |
| 2026-04-28 16:48 | 17.82824 | 18.51884 | 35863 ft | 479 kts | 345° |
| 2026-04-28 16:49 | 17.89357 | 18.50510 | 35871 ft | 478 kts | 345° |
| 2026-04-28 16:49 | 17.95884 | 18.49137 | 35875 ft | 479 kts | 345° |
| 2026-04-28 16:50 | 18.02420 | 18.47762 | 35869 ft | 479 kts | 345° |
| 2026-04-28 16:50 | 18.08953 | 18.46387 | 35866 ft | 479 kts | 345° |
| 2026-04-28 16:51 | 18.15485 | 18.45010 | 35880 ft | 479 kts | 345° |
| 2026-04-28 16:51 | 18.22011 | 18.43633 | 35870 ft | 478 kts | 345° |
| 2026-04-28 16:52 | 18.28532 | 18.42255 | 35861 ft | 478 kts | 345° |
| 2026-04-28 16:52 | 18.35046 | 18.40879 | 35880 ft | 477 kts | 345° |
| 2026-04-28 16:53 | 18.41560 | 18.39501 | 35867 ft | 477 kts | 345° |
| 2026-04-28 16:53 | 18.48064 | 18.38125 | 35865 ft | 477 kts | 345° |
| 2026-04-28 16:54 | 18.54565 | 18.36749 | 35879 ft | 477 kts | 345° |
| 2026-04-28 16:54 | 18.59971 | 18.35603 | 35873 ft | 477 kts | 345° |
| 2026-04-28 16:55 | 18.66476 | 18.34222 | 35885 ft | 477 kts | 345° |
| 2026-04-28 16:55 | 18.72978 | 18.32842 | 35865 ft | 477 kts | 344° |
| 2026-04-28 16:56 | 18.79483 | 18.31461 | 35883 ft | 477 kts | 344° |
| 2026-04-28 16:56 | 18.85983 | 18.30080 | 35868 ft | 476 kts | 344° |
| 2026-04-28 16:57 | 18.92477 | 18.28696 | 35884 ft | 476 kts | 344° |
| 2026-04-28 16:57 | 18.98977 | 18.27312 | 35880 ft | 476 kts | 344° |
| 2026-04-28 16:58 | 19.05465 | 18.25930 | 35885 ft | 476 kts | 344° |
| 2026-04-28 16:58 | 19.11960 | 18.24546 | 35881 ft | 476 kts | 344° |
| 2026-04-28 16:59 | 19.18445 | 18.23162 | 35881 ft | 475 kts | 343° |
| 2026-04-28 16:59 | 19.24926 | 18.21777 | 35885 ft | 475 kts | 343° |
| 2026-04-28 17:00 | 19.31406 | 18.20391 | 35873 ft | 475 kts | 343° |
| 2026-04-28 17:00 | 19.37881 | 18.19007 | 35880 ft | 474 kts | 343° |
| 2026-04-28 17:01 | 19.44350 | 18.17621 | 35889 ft | 474 kts | 343° |
| 2026-04-28 17:01 | 19.50814 | 18.16236 | 35874 ft | 474 kts | 343° |
| 2026-04-28 17:02 | 19.57270 | 18.14850 | 35883 ft | 473 kts | 343° |
| 2026-04-28 17:02 | 19.63720 | 18.13467 | 35893 ft | 473 kts | 343° |
| 2026-04-28 17:03 | 19.73402 | 18.11387 | 35884 ft | 473 kts | 343° |
| 2026-04-28 17:03 | 19.79856 | 18.09998 | 35890 ft | 473 kts | 343° |
| 2026-04-28 17:04 | 19.89531 | 18.07913 | 35887 ft | 473 kts | 343° |
| 2026-04-28 17:05 | 19.99200 | 18.05830 | 35890 ft | 472 kts | 343° |
| 2026-04-28 17:06 | 20.08863 | 18.03743 | 35912 ft | 472 kts | 343° |
| 2026-04-28 17:06 | 20.18342 | 18.01116 | 35917 ft | 464 kts | 332° |
| 2026-04-28 17:07 | 20.24195 | 17.98265 | 35911 ft | 463 kts | 329° |
| 2026-04-28 17:07 | 20.30035 | 17.95356 | 35907 ft | 463 kts | 329° |
| 2026-04-28 17:08 | 20.35882 | 17.92468 | 35902 ft | 463 kts | 330° |
| 2026-04-28 17:08 | 20.41738 | 17.89592 | 35913 ft | 463 kts | 330° |
| 2026-04-28 17:09 | 20.47590 | 17.86719 | 35908 ft | 463 kts | 330° |
| 2026-04-28 17:09 | 20.53450 | 17.83842 | 35908 ft | 463 kts | 330° |
| 2026-04-28 17:10 | 20.59295 | 17.80969 | 35904 ft | 462 kts | 330° |
| 2026-04-28 17:10 | 20.65133 | 17.78094 | 35910 ft | 462 kts | 329° |
| 2026-04-28 17:11 | 20.70958 | 17.75225 | 35922 ft | 460 kts | 329° |
| 2026-04-28 17:11 | 20.76783 | 17.72353 | 35917 ft | 460 kts | 329° |
| 2026-04-28 17:12 | 20.82596 | 17.69483 | 35915 ft | 460 kts | 329° |
| 2026-04-28 17:12 | 20.88399 | 17.66617 | 35919 ft | 459 kts | 329° |
| 2026-04-28 17:13 | 20.94193 | 17.63753 | 35913 ft | 459 kts | 329° |
| 2026-04-28 17:13 | 20.99980 | 17.60889 | 35929 ft | 458 kts | 329° |
| 2026-04-28 17:14 | 21.05770 | 17.58022 | 35927 ft | 459 kts | 329° |
| 2026-04-28 17:14 | 21.11561 | 17.55152 | 35920 ft | 458 kts | 329° |
| 2026-04-28 17:15 | 21.17348 | 17.52282 | 35934 ft | 458 kts | 329° |
| 2026-04-28 17:15 | 21.23123 | 17.49412 | 35937 ft | 458 kts | 329° |
| 2026-04-28 17:16 | 21.28900 | 17.46542 | 35933 ft | 457 kts | 329° |
| 2026-04-28 17:16 | 21.34669 | 17.43674 | 35939 ft | 458 kts | 329° |
| 2026-04-28 17:17 | 21.40436 | 17.40804 | 35924 ft | 457 kts | 328° |
| 2026-04-28 17:17 | 21.46192 | 17.37936 | 35932 ft | 456 kts | 328° |
| 2026-04-28 17:18 | 21.51944 | 17.35067 | 35938 ft | 455 kts | 328° |
| 2026-04-28 17:18 | 21.57698 | 17.32196 | 35934 ft | 456 kts | 328° |
| 2026-04-28 17:19 | 21.63450 | 17.29323 | 35936 ft | 455 kts | 328° |
| 2026-04-28 17:19 | 21.69185 | 17.26453 | 35937 ft | 455 kts | 328° |
| 2026-04-28 17:20 | 21.73951 | 17.24069 | 35931 ft | 454 kts | 328° |
| 2026-04-28 17:20 | 21.80637 | 17.20720 | 35943 ft | 454 kts | 328° |
| 2026-04-28 17:21 | 21.86361 | 17.17850 | 35941 ft | 454 kts | 328° |
| 2026-04-28 17:22 | 21.94955 | 17.13537 | 35948 ft | 455 kts | 328° |
| 2026-04-28 17:22 | 22.00693 | 17.10653 | 35944 ft | 455 kts | 328° |
| 2026-04-28 17:23 | 22.09269 | 17.06288 | 35942 ft | 453 kts | 328° |
| 2026-04-28 17:23 | 22.14954 | 17.03380 | 35939 ft | 451 kts | 327° |
| 2026-04-28 17:24 | 22.20616 | 17.00483 | 35941 ft | 450 kts | 327° |
| 2026-04-28 17:24 | 22.26265 | 16.97593 | 35943 ft | 449 kts | 327° |
| 2026-04-28 17:25 | 22.34732 | 16.93257 | 35949 ft | 449 kts | 327° |
| 2026-04-28 17:26 | 22.40377 | 16.90361 | 35955 ft | 449 kts | 327° |
| 2026-04-28 17:26 | 22.46025 | 16.87463 | 35954 ft | 450 kts | 327° |
| 2026-04-28 17:27 | 22.51679 | 16.84559 | 35957 ft | 450 kts | 327° |
| 2026-04-28 17:27 | 22.57336 | 16.81652 | 35956 ft | 450 kts | 327° |
| 2026-04-28 17:28 | 22.62992 | 16.78741 | 35951 ft | 450 kts | 327° |
| 2026-04-28 17:28 | 22.71478 | 16.74370 | 35952 ft | 450 kts | 327° |
| 2026-04-28 17:29 | 22.77130 | 16.71454 | 35952 ft | 450 kts | 327° |
| 2026-04-28 17:30 | 22.85599 | 16.67082 | 35955 ft | 449 kts | 327° |
| 2026-04-28 17:30 | 22.94049 | 16.62714 | 35958 ft | 448 kts | 327° |
| 2026-04-28 17:31 | 23.02449 | 16.58363 | 35963 ft | 448 kts | 327° |
| 2026-04-28 17:32 | 23.10873 | 16.53996 | 35963 ft | 447 kts | 327° |
| 2026-04-28 17:32 | 23.16524 | 16.51064 | 35960 ft | 447 kts | 327° |
| 2026-04-28 17:33 | 23.22092 | 16.48171 | 35962 ft | 446 kts | 327° |
| 2026-04-28 17:33 | 23.25844 | 16.46220 | 35964 ft | 447 kts | 327° |
| 2026-04-28 17:34 | 23.33298 | 16.42338 | 35961 ft | 446 kts | 327° |
| 2026-04-28 17:34 | 23.38896 | 16.39422 | 35966 ft | 446 kts | 327° |
| 2026-04-28 17:35 | 23.44486 | 16.36509 | 35975 ft | 445 kts | 327° |
| 2026-04-28 17:35 | 23.50077 | 16.33591 | 35974 ft | 445 kts | 327° |
| 2026-04-28 17:36 | 23.54720 | 16.31164 | 35969 ft | 445 kts | 327° |
| 2026-04-28 17:36 | 23.60306 | 16.28242 | 35973 ft | 445 kts | 326° |
| 2026-04-28 17:37 | 23.65887 | 16.25321 | 35971 ft | 445 kts | 326° |
| 2026-04-28 17:37 | 23.71460 | 16.22401 | 35972 ft | 444 kts | 326° |
| 2026-04-28 17:38 | 23.77032 | 16.19480 | 35973 ft | 444 kts | 326° |
| 2026-04-28 17:38 | 23.82598 | 16.16557 | 35972 ft | 444 kts | 326° |
| 2026-04-28 17:39 | 23.88155 | 16.13638 | 35971 ft | 443 kts | 326° |
| 2026-04-28 17:40 | 23.96493 | 16.09252 | 35998 ft | 443 kts | 326° |
| 2026-04-28 17:40 | 24.02050 | 16.06325 | 36001 ft | 443 kts | 326° |
| 2026-04-28 17:41 | 24.07607 | 16.03395 | 36000 ft | 443 kts | 326° |
| 2026-04-28 17:41 | 24.13157 | 16.00465 | 36000 ft | 443 kts | 326° |
| 2026-04-28 17:42 | 24.18720 | 15.97528 | 35998 ft | 444 kts | 326° |
| 2026-04-28 17:42 | 24.24279 | 15.94588 | 35999 ft | 444 kts | 326° |
| 2026-04-28 17:43 | 24.29837 | 15.91646 | 36001 ft | 444 kts | 326° |
| 2026-04-28 17:43 | 24.35404 | 15.88698 | 36000 ft | 444 kts | 326° |
| 2026-04-28 17:44 | 24.40965 | 15.85749 | 36003 ft | 444 kts | 326° |
| 2026-04-28 17:44 | 24.46533 | 15.82794 | 36002 ft | 444 kts | 326° |
| 2026-04-28 17:45 | 24.52095 | 15.79838 | 35996 ft | 444 kts | 326° |
| 2026-04-28 17:45 | 24.57650 | 15.76885 | 36004 ft | 444 kts | 326° |
| 2026-04-28 17:46 | 24.63201 | 15.73930 | 36000 ft | 443 kts | 326° |
| 2026-04-28 17:46 | 24.68711 | 15.70992 | 36001 ft | 443 kts | 326° |
| 2026-04-28 17:47 | 24.74249 | 15.68037 | 35999 ft | 442 kts | 326° |
| 2026-04-28 17:47 | 24.79784 | 15.65081 | 35999 ft | 442 kts | 326° |
| 2026-04-28 17:48 | 24.85319 | 15.62126 | 36002 ft | 442 kts | 326° |
| 2026-04-28 17:48 | 24.90854 | 15.59185 | 36000 ft | 442 kts | 326° |
| 2026-04-28 17:49 | 24.96389 | 15.56245 | 35995 ft | 442 kts | 326° |
| 2026-04-28 17:49 | 25.01960 | 15.53280 | 36002 ft | 441 kts | 326° |
| 2026-04-28 17:50 | 25.07494 | 15.50331 | 36002 ft | 442 kts | 326° |
| 2026-04-28 17:50 | 25.13028 | 15.47378 | 36005 ft | 442 kts | 326° |
| 2026-04-28 17:51 | 25.18563 | 15.44420 | 35999 ft | 442 kts | 326° |
| 2026-04-28 17:51 | 25.24098 | 15.41463 | 35999 ft | 442 kts | 326° |
| 2026-04-28 17:52 | 25.29592 | 15.38521 | 35996 ft | 442 kts | 326° |
| 2026-04-28 17:52 | 25.37887 | 15.34076 | 36003 ft | 441 kts | 326° |
| 2026-04-28 17:53 | 25.43442 | 15.31097 | 36002 ft | 441 kts | 326° |
| 2026-04-28 17:53 | 25.48918 | 15.28155 | 36002 ft | 440 kts | 326° |
| 2026-04-28 17:54 | 25.54425 | 15.25194 | 36001 ft | 440 kts | 326° |
| 2026-04-28 17:54 | 25.59927 | 15.22231 | 35994 ft | 440 kts | 326° |
| 2026-04-28 17:55 | 25.65429 | 15.19267 | 36002 ft | 440 kts | 326° |
| 2026-04-28 17:55 | 25.70928 | 15.16301 | 36001 ft | 440 kts | 326° |
| 2026-04-28 17:56 | 25.76434 | 15.13328 | 35999 ft | 440 kts | 326° |
| 2026-04-28 17:56 | 25.81937 | 15.10354 | 36001 ft | 441 kts | 326° |
| 2026-04-28 17:57 | 25.87454 | 15.07370 | 36004 ft | 441 kts | 326° |
| 2026-04-28 17:57 | 25.92999 | 15.04363 | 36011 ft | 449 kts | 326° |
| 2026-04-28 17:58 | 25.98668 | 15.01283 | 36000 ft | 458 kts | 326° |
| 2026-04-28 17:58 | 26.04442 | 14.98149 | 35999 ft | 463 kts | 326° |
| 2026-04-28 17:59 | 26.10218 | 14.95018 | 35984 ft | 461 kts | 326° |
| 2026-04-28 17:59 | 26.15969 | 14.91894 | 35992 ft | 460 kts | 326° |
| 2026-04-28 18:00 | 26.21708 | 14.88769 | 35989 ft | 459 kts | 326° |
| 2026-04-28 18:00 | 26.27445 | 14.85641 | 35992 ft | 459 kts | 326° |
| 2026-04-28 18:01 | 26.33181 | 14.82509 | 35996 ft | 459 kts | 326° |
| 2026-04-28 18:01 | 26.38915 | 14.79376 | 35986 ft | 459 kts | 326° |
| 2026-04-28 18:02 | 26.44652 | 14.76238 | 35985 ft | 459 kts | 326° |
| 2026-04-28 18:02 | 26.50393 | 14.73095 | 35993 ft | 460 kts | 326° |
| 2026-04-28 18:03 | 26.56144 | 14.69941 | 35994 ft | 460 kts | 326° |
| 2026-04-28 18:03 | 26.61892 | 14.66786 | 35986 ft | 461 kts | 326° |
| 2026-04-28 18:04 | 26.67650 | 14.63623 | 35983 ft | 461 kts | 326° |
| 2026-04-28 18:04 | 26.73417 | 14.60450 | 35981 ft | 462 kts | 326° |
| 2026-04-28 18:05 | 26.78207 | 14.57813 | 35984 ft | 462 kts | 326° |
| 2026-04-28 18:05 | 26.84944 | 14.54099 | 35982 ft | 462 kts | 326° |
| 2026-04-28 18:06 | 26.90705 | 14.50918 | 35981 ft | 461 kts | 326° |
| 2026-04-28 18:06 | 26.96463 | 14.47750 | 35979 ft | 462 kts | 328° |
| 2026-04-28 18:07 | 27.02556 | 14.45247 | 35985 ft | 472 kts | 336° |
| 2026-04-28 18:07 | 27.09013 | 14.43646 | 35984 ft | 476 kts | 340° |
| 2026-04-28 18:08 | 27.15498 | 14.42119 | 35978 ft | 476 kts | 339° |
| 2026-04-28 18:08 | 27.21964 | 14.40560 | 35986 ft | 475 kts | 339° |
| 2026-04-28 18:09 | 27.28430 | 14.38981 | 35980 ft | 475 kts | 339° |
| 2026-04-28 18:09 | 27.34894 | 14.37400 | 35984 ft | 476 kts | 339° |
| 2026-04-28 18:10 | 27.41363 | 14.35816 | 35982 ft | 476 kts | 339° |
| 2026-04-28 18:10 | 27.47831 | 14.34232 | 35980 ft | 476 kts | 339° |
| 2026-04-28 18:11 | 27.54298 | 14.32630 | 35980 ft | 476 kts | 339° |
| 2026-04-28 18:11 | 27.60759 | 14.30988 | 35983 ft | 476 kts | 339° |
| 2026-04-28 18:12 | 27.67219 | 14.29342 | 35981 ft | 477 kts | 339° |
| 2026-04-28 18:12 | 27.73693 | 14.27698 | 35978 ft | 477 kts | 339° |
| 2026-04-28 18:13 | 27.80184 | 14.26047 | 35985 ft | 479 kts | 340° |
| 2026-04-28 18:13 | 27.86668 | 14.24398 | 35984 ft | 481 kts | 340° |
| 2026-04-28 18:14 | 27.93257 | 14.22720 | 35988 ft | 483 kts | 340° |
| 2026-04-28 18:14 | 27.99775 | 14.21058 | 35979 ft | 484 kts | 340° |
| 2026-04-28 18:15 | 28.06350 | 14.19384 | 35976 ft | 484 kts | 340° |
| 2026-04-28 18:15 | 28.12925 | 14.17709 | 35972 ft | 484 kts | 340° |
| 2026-04-28 18:16 | 28.19500 | 14.16032 | 35973 ft | 484 kts | 340° |
| 2026-04-28 18:16 | 28.26061 | 14.14357 | 35971 ft | 483 kts | 340° |
| 2026-04-28 18:17 | 28.32616 | 14.12679 | 35972 ft | 483 kts | 340° |
| 2026-04-28 18:17 | 28.39167 | 14.11000 | 35970 ft | 482 kts | 340° |
| 2026-04-28 18:18 | 28.45704 | 14.09322 | 35974 ft | 482 kts | 340° |
| 2026-04-28 18:18 | 28.51142 | 14.07926 | 35975 ft | 481 kts | 340° |
| 2026-04-28 18:19 | 28.57667 | 14.06248 | 35973 ft | 481 kts | 340° |
| 2026-04-28 18:19 | 28.64135 | 14.04584 | 35972 ft | 480 kts | 340° |
| 2026-04-28 18:20 | 28.70411 | 14.02965 | 35973 ft | 481 kts | 340° |
| 2026-04-28 18:20 | 28.76932 | 14.01281 | 35971 ft | 480 kts | 340° |
| 2026-04-28 18:21 | 28.83448 | 13.99597 | 35970 ft | 480 kts | 340° |
| 2026-04-28 18:21 | 28.89976 | 13.97908 | 35961 ft | 481 kts | 340° |
| 2026-04-28 18:22 | 28.96501 | 13.96218 | 35964 ft | 481 kts | 340° |
| 2026-04-28 18:22 | 29.03030 | 13.94524 | 35965 ft | 481 kts | 340° |
| 2026-04-28 18:23 | 29.09560 | 13.92828 | 35964 ft | 481 kts | 340° |
| 2026-04-28 18:23 | 29.16089 | 13.91129 | 35964 ft | 481 kts | 340° |
| 2026-04-28 18:24 | 29.21510 | 13.89718 | 35965 ft | 481 kts | 340° |
| 2026-04-28 18:24 | 29.29136 | 13.87730 | 35966 ft | 480 kts | 340° |
| 2026-04-28 18:25 | 29.35650 | 13.86029 | 35960 ft | 480 kts | 340° |
| 2026-04-28 18:26 | 29.45411 | 13.83476 | 35965 ft | 480 kts | 340° |
| 2026-04-28 18:26 | 29.51918 | 13.81771 | 35963 ft | 479 kts | 340° |
| 2026-04-28 18:27 | 29.58374 | 13.80077 | 35963 ft | 479 kts | 340° |
| 2026-04-28 18:27 | 29.64865 | 13.78372 | 35961 ft | 478 kts | 340° |
| 2026-04-28 18:28 | 29.71355 | 13.76665 | 35953 ft | 478 kts | 340° |
| 2026-04-28 18:28 | 29.77841 | 13.74957 | 35953 ft | 478 kts | 340° |
| 2026-04-28 18:29 | 29.84322 | 13.73248 | 35953 ft | 478 kts | 340° |
| 2026-04-28 18:29 | 29.90807 | 13.71535 | 35954 ft | 478 kts | 340° |
| 2026-04-28 18:30 | 29.97287 | 13.69821 | 35954 ft | 478 kts | 340° |
| 2026-04-28 18:30 | 30.03765 | 13.68105 | 35957 ft | 478 kts | 340° |
| 2026-04-28 18:31 | 30.10240 | 13.66389 | 35953 ft | 477 kts | 340° |
| 2026-04-28 18:31 | 30.16714 | 13.64670 | 35951 ft | 477 kts | 340° |
| 2026-04-28 18:32 | 30.23188 | 13.62948 | 35959 ft | 477 kts | 340° |
| 2026-04-28 18:32 | 30.29668 | 13.61223 | 35951 ft | 477 kts | 340° |
| 2026-04-28 18:33 | 30.36137 | 13.59498 | 35960 ft | 477 kts | 340° |
| 2026-04-28 18:33 | 30.42388 | 13.57148 | 35951 ft | 467 kts | 329° |
| 2026-04-28 18:34 | 30.48259 | 13.53950 | 35950 ft | 467 kts | 328° |
| 2026-04-28 18:34 | 30.54137 | 13.50731 | 35945 ft | 468 kts | 328° |
| 2026-04-28 18:35 | 30.60037 | 13.47529 | 35943 ft | 469 kts | 328° |
| 2026-04-28 18:35 | 30.65958 | 13.44329 | 35949 ft | 469 kts | 328° |
| 2026-04-28 18:36 | 30.71884 | 13.41122 | 35945 ft | 470 kts | 328° |
| 2026-04-28 18:36 | 30.77812 | 13.37908 | 35945 ft | 471 kts | 328° |
| 2026-04-28 18:37 | 30.83751 | 13.34684 | 35941 ft | 471 kts | 328° |
| 2026-04-28 18:37 | 30.89686 | 13.31458 | 35946 ft | 471 kts | 328° |
| 2026-04-28 18:38 | 30.95624 | 13.28225 | 35941 ft | 471 kts | 328° |
| 2026-04-28 18:38 | 31.01567 | 13.24985 | 35944 ft | 471 kts | 328° |
| 2026-04-28 18:39 | 31.07506 | 13.21742 | 35945 ft | 471 kts | 328° |
| 2026-04-28 18:39 | 31.13443 | 13.18496 | 35947 ft | 471 kts | 328° |
| 2026-04-28 18:40 | 31.19382 | 13.15245 | 35945 ft | 472 kts | 328° |
| 2026-04-28 18:40 | 31.25322 | 13.11989 | 35944 ft | 472 kts | 328° |
| 2026-04-28 18:41 | 31.31263 | 13.08727 | 35944 ft | 472 kts | 328° |
| 2026-04-28 18:41 | 31.37204 | 13.05460 | 35943 ft | 472 kts | 328° |
| 2026-04-28 18:42 | 31.43157 | 13.02207 | 35947 ft | 474 kts | 330° |
| 2026-04-28 18:42 | 31.49473 | 12.99757 | 35945 ft | 485 kts | 340° |
| 2026-04-28 18:43 | 31.56068 | 12.98018 | 35941 ft | 486 kts | 340° |
| 2026-04-28 18:43 | 31.62667 | 12.96280 | 35945 ft | 486 kts | 340° |
| 2026-04-28 18:44 | 31.69268 | 12.94505 | 35939 ft | 487 kts | 340° |
| 2026-04-28 18:44 | 31.79165 | 12.91809 | 35944 ft | 487 kts | 340° |
| 2026-04-28 18:45 | 31.85778 | 12.90004 | 35946 ft | 488 kts | 340° |
| 2026-04-28 18:45 | 31.92387 | 12.88199 | 35945 ft | 488 kts | 340° |
| 2026-04-28 18:46 | 31.98958 | 12.86402 | 35944 ft | 488 kts | 340° |
| 2026-04-28 18:46 | 32.05574 | 12.84590 | 35943 ft | 489 kts | 340° |
| 2026-04-28 18:47 | 32.12194 | 12.82771 | 35951 ft | 489 kts | 340° |
| 2026-04-28 18:47 | 32.18826 | 12.80952 | 35940 ft | 490 kts | 339° |
| 2026-04-28 18:48 | 32.25469 | 12.79124 | 35945 ft | 490 kts | 339° |
| 2026-04-28 18:48 | 32.32120 | 12.77293 | 35945 ft | 491 kts | 339° |
| 2026-04-28 18:49 | 32.36576 | 12.76063 | 35944 ft | 491 kts | 339° |
| 2026-04-28 18:49 | 32.45435 | 12.73615 | 35937 ft | 492 kts | 339° |
| 2026-04-28 18:50 | 32.52084 | 12.71774 | 35935 ft | 492 kts | 339° |
| 2026-04-28 18:50 | 32.58801 | 12.69912 | 35935 ft | 491 kts | 339° |
| 2026-04-28 18:51 | 32.65460 | 12.68063 | 35933 ft | 491 kts | 339° |
| 2026-04-28 18:51 | 32.72111 | 12.66212 | 35936 ft | 491 kts | 339° |
| 2026-04-28 18:52 | 32.78352 | 12.63340 | 35943 ft | 474 kts | 324° |
| 2026-04-28 18:52 | 32.83664 | 12.58947 | 35938 ft | 462 kts | 313° |
| 2026-04-28 18:53 | 32.88434 | 12.54039 | 35922 ft | 442 kts | 312° |
| 2026-04-28 18:53 | 32.93064 | 12.49280 | 35935 ft | 440 kts | 313° |
| 2026-04-28 18:54 | 32.97719 | 12.44526 | 35949 ft | 441 kts | 313° |
| 2026-04-28 18:54 | 33.02393 | 12.39769 | 35948 ft | 443 kts | 313° |
| 2026-04-28 18:55 | 33.06292 | 12.35800 | 35946 ft | 443 kts | 313° |
| 2026-04-28 18:55 | 33.11766 | 12.30220 | 35945 ft | 443 kts | 313° |
| 2026-04-28 18:56 | 33.16459 | 12.25428 | 35943 ft | 443 kts | 312° |
| 2026-04-28 18:56 | 33.21142 | 12.20638 | 35945 ft | 443 kts | 312° |
| 2026-04-28 18:57 | 33.25822 | 12.15845 | 35945 ft | 443 kts | 312° |
| 2026-04-28 18:57 | 33.30819 | 12.11499 | 35944 ft | 453 kts | 322° |
| 2026-04-28 18:58 | 33.36372 | 12.07792 | 35949 ft | 454 kts | 323° |
| 2026-04-28 18:58 | 33.41878 | 12.04094 | 35942 ft | 454 kts | 322° |
| 2026-04-28 18:59 | 33.47373 | 12.00373 | 35946 ft | 454 kts | 322° |
| 2026-04-28 18:59 | 33.51939 | 11.97268 | 35939 ft | 454 kts | 322° |
| 2026-04-28 19:00 | 33.58357 | 11.92893 | 35950 ft | 455 kts | 322° |
| 2026-04-28 19:00 | 33.63833 | 11.89155 | 35944 ft | 456 kts | 322° |
| 2026-04-28 19:01 | 33.69347 | 11.85391 | 35946 ft | 456 kts | 322° |
| 2026-04-28 19:01 | 33.74861 | 11.81616 | 35944 ft | 457 kts | 322° |
| 2026-04-28 19:02 | 33.79489 | 11.78442 | 35946 ft | 457 kts | 322° |
| 2026-04-28 19:02 | 33.85012 | 11.74651 | 35945 ft | 457 kts | 322° |
| 2026-04-28 19:03 | 33.90539 | 11.70853 | 35947 ft | 458 kts | 322° |
| 2026-04-28 19:03 | 33.96068 | 11.67049 | 35956 ft | 457 kts | 322° |
| 2026-04-28 19:04 | 34.01601 | 11.63235 | 35954 ft | 458 kts | 322° |
| 2026-04-28 19:04 | 34.07125 | 11.59422 | 35953 ft | 457 kts | 322° |
| 2026-04-28 19:05 | 34.12643 | 11.55606 | 35952 ft | 457 kts | 322° |
| 2026-04-28 19:05 | 34.18147 | 11.51795 | 35954 ft | 456 kts | 322° |
| 2026-04-28 19:06 | 34.23656 | 11.47974 | 35953 ft | 456 kts | 322° |
| 2026-04-28 19:06 | 34.29160 | 11.44151 | 35955 ft | 456 kts | 322° |
| 2026-04-28 19:07 | 34.34665 | 11.40322 | 35954 ft | 457 kts | 322° |
| 2026-04-28 19:07 | 34.40180 | 11.36478 | 35954 ft | 457 kts | 322° |
| 2026-04-28 19:08 | 34.45654 | 11.32665 | 35638 ft | 447 kts | 322° |
| 2026-04-28 19:08 | 34.48338 | 11.30796 | 35067 ft | 444 kts | 321° |
| 2026-04-28 19:08 | 34.50984 | 11.28946 | 34361 ft | 445 kts | 321° |
| 2026-04-28 19:09 | 34.53668 | 11.27063 | 33647 ft | 446 kts | 321° |
| 2026-04-28 19:09 | 34.56359 | 11.25174 | 32976 ft | 446 kts | 321° |
| 2026-04-28 19:09 | 34.59035 | 11.23300 | 32502 ft | 442 kts | 321° |
| 2026-04-28 19:09 | 34.61677 | 11.21452 | 32075 ft | 435 kts | 321° |
| 2026-04-28 19:10 | 34.64287 | 11.19627 | 31614 ft | 430 kts | 321° |
| 2026-04-28 19:10 | 34.66864 | 11.17817 | 31102 ft | 427 kts | 321° |
| 2026-04-28 19:10 | 34.69427 | 11.16015 | 30573 ft | 423 kts | 321° |
| 2026-04-28 19:10 | 34.71968 | 11.14229 | 30065 ft | 420 kts | 321° |
| 2026-04-28 19:11 | 34.74483 | 11.12459 | 29587 ft | 416 kts | 321° |
| 2026-04-28 19:11 | 34.76981 | 11.10700 | 29106 ft | 412 kts | 321° |
| 2026-04-28 19:11 | 34.79434 | 11.08974 | 28567 ft | 402 kts | 321° |
| 2026-04-28 19:11 | 34.81835 | 11.07285 | 27679 ft | 397 kts | 322° |
| 2026-04-28 19:12 | 34.84221 | 11.05600 | 26704 ft | 395 kts | 323° |
| 2026-04-28 19:12 | 34.86587 | 11.03925 | 25772 ft | 392 kts | 323° |
| 2026-04-28 19:12 | 34.88929 | 11.02267 | 24918 ft | 386 kts | 324° |
| 2026-04-28 19:12 | 34.91242 | 11.00630 | 24278 ft | 383 kts | 325° |
| 2026-04-28 19:13 | 34.93536 | 10.99004 | 23827 ft | 380 kts | 326° |
| 2026-04-28 19:13 | 34.95813 | 10.97390 | 23368 ft | 377 kts | 326° |
| 2026-04-28 19:13 | 34.98076 | 10.95786 | 22921 ft | 375 kts | 326° |
| 2026-04-28 19:13 | 35.00320 | 10.94195 | 22472 ft | 372 kts | 326° |
| 2026-04-28 19:14 | 35.02552 | 10.92611 | 22043 ft | 370 kts | 326° |
| 2026-04-28 19:14 | 35.04770 | 10.91037 | 21608 ft | 367 kts | 326° |
| 2026-04-28 19:14 | 35.06969 | 10.89474 | 21160 ft | 365 kts | 326° |
| 2026-04-28 19:14 | 35.09158 | 10.87918 | 20745 ft | 363 kts | 326° |
| 2026-04-28 19:15 | 35.11332 | 10.86371 | 20318 ft | 360 kts | 326° |
| 2026-04-28 19:15 | 35.13492 | 10.84834 | 19895 ft | 358 kts | 326° |
| 2026-04-28 19:15 | 35.15634 | 10.83309 | 19468 ft | 356 kts | 326° |
| 2026-04-28 19:15 | 35.17048 | 10.82301 | 19189 ft | 355 kts | 326° |
| 2026-04-28 19:16 | 35.19887 | 10.80278 | 18625 ft | 351 kts | 326° |
| 2026-04-28 19:16 | 35.21993 | 10.78775 | 18215 ft | 349 kts | 326° |
| 2026-04-28 19:16 | 35.24083 | 10.77283 | 17797 ft | 347 kts | 326° |
| 2026-04-28 19:16 | 35.26162 | 10.75796 | 17371 ft | 345 kts | 326° |
| 2026-04-28 19:17 | 35.28230 | 10.74318 | 16939 ft | 342 kts | 326° |
| 2026-04-28 19:17 | 35.30280 | 10.72853 | 16535 ft | 340 kts | 326° |
| 2026-04-28 19:17 | 35.32313 | 10.71399 | 16126 ft | 337 kts | 326° |
| 2026-04-28 19:17 | 35.34335 | 10.69951 | 15712 ft | 335 kts | 326° |
| 2026-04-28 19:18 | 35.36338 | 10.68517 | 15321 ft | 332 kts | 326° |
| 2026-04-28 19:18 | 35.38323 | 10.67094 | 14903 ft | 330 kts | 327° |
| 2026-04-28 19:18 | 35.40295 | 10.65679 | 14502 ft | 327 kts | 327° |
| 2026-04-28 19:18 | 35.42250 | 10.64276 | 14111 ft | 324 kts | 327° |
| 2026-04-28 19:19 | 35.44186 | 10.62884 | 13711 ft | 322 kts | 327° |
| 2026-04-28 19:19 | 35.46106 | 10.61505 | 13327 ft | 319 kts | 327° |
| 2026-04-28 19:19 | 35.48016 | 10.60133 | 12934 ft | 316 kts | 327° |
| 2026-04-28 19:19 | 35.49905 | 10.58775 | 12555 ft | 314 kts | 327° |
| 2026-04-28 19:20 | 35.51779 | 10.57426 | 12183 ft | 311 kts | 327° |
| 2026-04-28 19:20 | 35.53639 | 10.56087 | 11799 ft | 310 kts | 327° |
| 2026-04-28 19:20 | 35.55507 | 10.54740 | 11428 ft | 314 kts | 327° |
| 2026-04-28 19:20 | 35.57415 | 10.53362 | 11040 ft | 323 kts | 328° |
| 2026-04-28 19:21 | 35.59371 | 10.51950 | 10630 ft | 329 kts | 328° |
| 2026-04-28 19:21 | 35.61328 | 10.50538 | 10436 ft | 322 kts | 328° |
| 2026-04-28 19:21 | 35.63228 | 10.49170 | 10268 ft | 310 kts | 328° |
| 2026-04-28 19:21 | 35.65056 | 10.47850 | 10126 ft | 299 kts | 328° |
| 2026-04-28 19:22 | 35.66793 | 10.46595 | 9995 ft | 288 kts | 328° |
| 2026-04-28 19:22 | 35.67950 | 10.45759 | 9819 ft | 284 kts | 328° |
| 2026-04-28 19:22 | 35.70183 | 10.44144 | 9404 ft | 278 kts | 328° |
| 2026-04-28 19:22 | 35.71859 | 10.42929 | 9084 ft | 274 kts | 328° |
| 2026-04-28 19:23 | 35.73482 | 10.41753 | 8783 ft | 275 kts | 328° |
| 2026-04-28 19:23 | 35.75145 | 10.40547 | 8491 ft | 281 kts | 328° |
| 2026-04-28 19:23 | 35.76805 | 10.39248 | 8159 ft | 285 kts | 320° |
| 2026-04-28 19:23 | 35.78268 | 10.37623 | 8046 ft | 280 kts | 314° |
| 2026-04-28 19:24 | 35.79674 | 10.35907 | 8012 ft | 283 kts | 313° |
| 2026-04-28 19:24 | 35.81064 | 10.34187 | 7924 ft | 284 kts | 313° |
| 2026-04-28 19:24 | 35.82458 | 10.32453 | 7617 ft | 285 kts | 313° |
| 2026-04-28 19:24 | 35.83849 | 10.30718 | 7227 ft | 284 kts | 313° |
| 2026-04-28 19:25 | 35.85237 | 10.28989 | 6773 ft | 284 kts | 313° |
| 2026-04-28 19:25 | 35.86623 | 10.27254 | 6360 ft | 284 kts | 313° |
| 2026-04-28 19:25 | 35.87984 | 10.25544 | 5975 ft | 283 kts | 313° |
| 2026-04-28 19:25 | 35.89377 | 10.23786 | 5566 ft | 282 kts | 313° |
| 2026-04-28 19:26 | 35.90739 | 10.22057 | 5182 ft | 280 kts | 313° |
| 2026-04-28 19:26 | 35.92063 | 10.20365 | 4879 ft | 276 kts | 313° |
| 2026-04-28 19:26 | 35.93407 | 10.18635 | 4612 ft | 275 kts | 313° |
| 2026-04-28 19:26 | 35.94714 | 10.16961 | 4401 ft | 272 kts | 317° |
| 2026-04-28 19:27 | 35.96289 | 10.15785 | 4251 ft | 266 kts | 346° |
| 2026-04-28 19:27 | 35.98112 | 10.15486 | 4073 ft | 265 kts | 0° |
| 2026-04-28 19:27 | 35.99957 | 10.15462 | 3970 ft | 266 kts | 2° |
| 2026-04-28 19:27 | 36.01759 | 10.15470 | 3814 ft | 248 kts | 3° |
| 2026-04-28 19:28 | 36.03420 | 10.15472 | 3467 ft | 231 kts | 3° |
| 2026-04-28 19:28 | 36.04974 | 10.15629 | 2943 ft | 218 kts | 23° |
| 2026-04-28 19:28 | 36.06156 | 10.16618 | 2406 ft | 200 kts | 56° |
| 2026-04-28 19:28 | 36.06856 | 10.18088 | 2251 ft | 203 kts | 63° |
| 2026-04-28 19:29 | 36.07536 | 10.19648 | 2067 ft | 207 kts | 63° |
| 2026-04-28 19:29 | 36.07988 | 10.20699 | 1996 ft | 203 kts | 63° |
| 2026-04-28 19:29 | 36.08832 | 10.22709 | 1972 ft | 194 kts | 64° |
| 2026-04-28 19:29 | 36.09157 | 10.24236 | 1969 ft | 180 kts | 96° |
| 2026-04-28 19:30 | 36.08689 | 10.25583 | 1990 ft | 166 kts | 124° |
| 2026-04-28 19:30 | 36.08059 | 10.26711 | 1985 ft | 151 kts | 111° |
| 2026-04-28 19:30 | 36.07945 | 10.27929 | 2039 ft | 143 kts | 90° |
| 2026-04-28 19:30 | 36.07816 | 10.29144 | 1990 ft | 138 kts | 97° |
| 2026-04-28 19:31 | 36.07696 | 10.30330 | 1872 ft | 142 kts | 94° |
| 2026-04-28 19:31 | 36.07640 | 10.31542 | 1690 ft | 140 kts | 90° |
| 2026-04-28 19:31 | 36.07623 | 10.32729 | 1499 ft | 137 kts | 89° |
| 2026-04-28 19:31 | 36.07616 | 10.33917 | 1329 ft | 139 kts | 89° |
| 2026-04-28 19:32 | 36.07610 | 10.35107 | 1143 ft | 138 kts | 88° |
| 2026-04-28 19:32 | 36.07605 | 10.36283 | 954 ft | 136 kts | 88° |
| 2026-04-28 19:32 | 36.07600 | 10.37453 | 782 ft | 136 kts | 88° |
| 2026-04-28 19:32 | 36.07596 | 10.38627 | 598 ft | 137 kts | 89° |
| 2026-04-28 19:33 | 36.07591 | 10.39800 | 416 ft | 136 kts | 89° |
| 2026-04-28 19:33 | 36.07580 | 10.40972 | 237 ft | 136 kts | 89° |
| 2026-04-28 19:33 | 36.07579 | 10.42142 | 85 ft | 137 kts | 89° |
| 2026-04-28 19:33 | 36.07574 | 10.43234 | 37 ft | 116 kts | 88° |
| 2026-04-28 19:34 | 36.07577 | 10.44054 | 36 ft | 73 kts | 90° |
| 2026-04-28 19:34 | 36.07575 | 10.44497 | 34 ft | 37 kts | 89° |
| 2026-04-28 19:34 | 36.07621 | 10.44735 | 36 ft | 23 kts | 65° |
| 2026-04-28 19:34 | 36.07689 | 10.44847 | 34 ft | 9 kts | 21° |
| 2026-04-28 19:35 | 36.07734 | 10.44806 | 34 ft | 9 kts | 284° |
| 2026-04-28 19:35 | 36.07743 | 10.44728 | 34 ft | 9 kts | 274° |
| 2026-04-28 19:35 | 36.07744 | 10.44645 | 35 ft | 9 kts | 270° |
| 2026-04-28 19:35 | 36.07743 | 10.44564 | 36 ft | 9 kts | 270° |
| 2026-04-28 19:36 | 36.07743 | 10.44437 | 38 ft | 22 kts | 270° |
| 2026-04-28 19:36 | 36.07744 | 10.44244 | 36 ft | 23 kts | 270° |
| 2026-04-28 19:36 | 36.07746 | 10.44050 | 36 ft | 23 kts | 270° |
| 2026-04-28 19:36 | 36.07747 | 10.43872 | 35 ft | 20 kts | 270° |
| 2026-04-28 19:37 | 36.07798 | 10.43792 | 33 ft | 10 kts | 2° |
| 2026-04-28 19:37 | 36.07844 | 10.43796 | 32 ft | 11 kts | 4° |
| 2026-04-28 19:37 | 36.07954 | 10.43799 | 30 ft | 13 kts | 0° |
| 2026-04-28 19:37 | 36.08019 | 10.43792 | 29 ft | 7 kts | 338° |
| 2026-04-28 19:38 | 36.08044 | 10.43739 | 29 ft | 8 kts | 272° |
| 2026-04-28 19:38 | 36.08044 | 10.43697 | 29 ft | 4 kts | 264° |
| 2026-04-28 19:38 | 36.08024 | 10.43683 | 29 ft | 4 kts | 182° |
| 2026-04-28 19:38 | 36.07996 | 10.43683 | 29 ft | 4 kts | 168° |
| 2026-04-28 19:39 | 36.07970 | 10.43693 | 30 ft | 4 kts | 180° |
| 2026-04-28 19:39 | 36.07953 | 10.43694 | 30 ft | 0 kts | 179° |